<?xml version="1.0" encoding="UTF-8" standalone="no" ?>
<gpx xmlns="http://www.topografix.com/GPX/1/1" xmlns:xsi="http://www.w3.org/2001/XMLSchema-instance" xsi:schemaLocation="http://www.topografix.com/GPX/1/1 http://www.topografix.com/GPX/1/1/gpx.xsd" version="1.1" creator="VisuGPX - https://www.visugpx.com">
  <metadata>
    <name>Montée du Guizai</name>
  </metadata>
  <trk>
    <name><![CDATA[Montée du Guizai_1]]></name>
    <trkseg>
      <trkpt lat="45.4062" lon="4.38142">
        <ele>618</ele>
        <time>2021-07-03T08:57:17Z</time>
      </trkpt>
      <trkpt lat="45.40619" lon="4.3814">
        <ele>618.2</ele>
        <time>2021-07-03T08:57:18Z</time>
      </trkpt>
      <trkpt lat="45.40618" lon="4.38131">
        <ele>618.6</ele>
        <time>2021-07-03T08:57:21Z</time>
      </trkpt>
      <trkpt lat="45.40617" lon="4.38127">
        <ele>618.4</ele>
        <time>2021-07-03T08:57:23Z</time>
      </trkpt>
      <trkpt lat="45.40616" lon="4.38123">
        <ele>618.4</ele>
        <time>2021-07-03T08:57:26Z</time>
      </trkpt>
      <trkpt lat="45.40616" lon="4.3812">
        <ele>618.4</ele>
        <time>2021-07-03T08:57:28Z</time>
      </trkpt>
      <trkpt lat="45.40616" lon="4.38115">
        <ele>618.6</ele>
        <time>2021-07-03T08:57:30Z</time>
      </trkpt>
      <trkpt lat="45.40616" lon="4.38112">
        <ele>618.6</ele>
        <time>2021-07-03T08:57:31Z</time>
      </trkpt>
      <trkpt lat="45.40615" lon="4.38109">
        <ele>618.8</ele>
        <time>2021-07-03T08:57:32Z</time>
      </trkpt>
      <trkpt lat="45.40614" lon="4.38108">
        <ele>619</ele>
        <time>2021-07-03T08:57:33Z</time>
      </trkpt>
      <trkpt lat="45.40613" lon="4.38106">
        <ele>619.2</ele>
        <time>2021-07-03T08:57:34Z</time>
      </trkpt>
      <trkpt lat="45.40611" lon="4.38102">
        <ele>619.6</ele>
        <time>2021-07-03T08:57:36Z</time>
      </trkpt>
      <trkpt lat="45.40609" lon="4.38097">
        <ele>620</ele>
        <time>2021-07-03T08:57:38Z</time>
      </trkpt>
      <trkpt lat="45.40609" lon="4.38095">
        <ele>620.2</ele>
        <time>2021-07-03T08:57:39Z</time>
      </trkpt>
      <trkpt lat="45.40607" lon="4.38089">
        <ele>620.6</ele>
        <time>2021-07-03T08:57:41Z</time>
      </trkpt>
      <trkpt lat="45.40605" lon="4.38086">
        <ele>620.6</ele>
        <time>2021-07-03T08:57:42Z</time>
      </trkpt>
      <trkpt lat="45.40604" lon="4.38083">
        <ele>620.8</ele>
        <time>2021-07-03T08:57:43Z</time>
      </trkpt>
      <trkpt lat="45.40604" lon="4.3808">
        <ele>621</ele>
        <time>2021-07-03T08:57:44Z</time>
      </trkpt>
      <trkpt lat="45.40602" lon="4.38075">
        <ele>621.2</ele>
        <time>2021-07-03T08:57:45Z</time>
      </trkpt>
      <trkpt lat="45.40601" lon="4.38071">
        <ele>621.4</ele>
        <time>2021-07-03T08:57:46Z</time>
      </trkpt>
      <trkpt lat="45.40599" lon="4.38067">
        <ele>621.8</ele>
        <time>2021-07-03T08:57:48Z</time>
      </trkpt>
      <trkpt lat="45.40596" lon="4.38061">
        <ele>622.2</ele>
        <time>2021-07-03T08:57:51Z</time>
      </trkpt>
      <trkpt lat="45.40595" lon="4.38059">
        <ele>622.4</ele>
        <time>2021-07-03T08:57:52Z</time>
      </trkpt>
      <trkpt lat="45.40594" lon="4.38058">
        <ele>622.4</ele>
        <time>2021-07-03T08:57:53Z</time>
      </trkpt>
      <trkpt lat="45.40593" lon="4.38056">
        <ele>622.6</ele>
        <time>2021-07-03T08:57:54Z</time>
      </trkpt>
      <trkpt lat="45.40592" lon="4.38054">
        <ele>622.8</ele>
        <time>2021-07-03T08:57:55Z</time>
      </trkpt>
      <trkpt lat="45.4059" lon="4.3805">
        <ele>623</ele>
        <time>2021-07-03T08:57:58Z</time>
      </trkpt>
      <trkpt lat="45.40586" lon="4.38048">
        <ele>623.6</ele>
        <time>2021-07-03T08:58:01Z</time>
      </trkpt>
      <trkpt lat="45.40577" lon="4.38041">
        <ele>624.2</ele>
        <time>2021-07-03T08:58:07Z</time>
      </trkpt>
      <trkpt lat="45.40576" lon="4.38039">
        <ele>624.4</ele>
        <time>2021-07-03T08:58:08Z</time>
      </trkpt>
      <trkpt lat="45.40575" lon="4.38039">
        <ele>624.4</ele>
        <time>2021-07-03T08:58:09Z</time>
      </trkpt>
      <trkpt lat="45.40574" lon="4.38038">
        <ele>624.6</ele>
        <time>2021-07-03T08:58:10Z</time>
      </trkpt>
      <trkpt lat="45.40573" lon="4.38036">
        <ele>624.8</ele>
        <time>2021-07-03T08:58:11Z</time>
      </trkpt>
      <trkpt lat="45.40569" lon="4.38025">
        <ele>625.6</ele>
        <time>2021-07-03T08:58:16Z</time>
      </trkpt>
      <trkpt lat="45.40561" lon="4.38011">
        <ele>626.4</ele>
        <time>2021-07-03T08:58:21Z</time>
      </trkpt>
      <trkpt lat="45.4056" lon="4.38008">
        <ele>626.4</ele>
        <time>2021-07-03T08:58:22Z</time>
      </trkpt>
      <trkpt lat="45.40553" lon="4.37998">
        <ele>626.6</ele>
        <time>2021-07-03T08:58:26Z</time>
      </trkpt>
      <trkpt lat="45.40552" lon="4.37996">
        <ele>626.8</ele>
        <time>2021-07-03T08:58:27Z</time>
      </trkpt>
      <trkpt lat="45.4055" lon="4.37995">
        <ele>627</ele>
        <time>2021-07-03T08:58:28Z</time>
      </trkpt>
      <trkpt lat="45.40545" lon="4.3799">
        <ele>627.6</ele>
        <time>2021-07-03T08:58:31Z</time>
      </trkpt>
      <trkpt lat="45.40544" lon="4.37989">
        <ele>627.6</ele>
        <time>2021-07-03T08:58:32Z</time>
      </trkpt>
      <trkpt lat="45.40539" lon="4.37984">
        <ele>628</ele>
        <time>2021-07-03T08:58:35Z</time>
      </trkpt>
      <trkpt lat="45.40533" lon="4.3798">
        <ele>628.8</ele>
        <time>2021-07-03T08:58:39Z</time>
      </trkpt>
      <trkpt lat="45.40529" lon="4.37976">
        <ele>629.2</ele>
        <time>2021-07-03T08:58:41Z</time>
      </trkpt>
      <trkpt lat="45.40527" lon="4.37974">
        <ele>629.4</ele>
        <time>2021-07-03T08:58:43Z</time>
      </trkpt>
      <trkpt lat="45.40522" lon="4.3797">
        <ele>629.8</ele>
        <time>2021-07-03T08:58:46Z</time>
      </trkpt>
      <trkpt lat="45.40518" lon="4.37967">
        <ele>630.2</ele>
        <time>2021-07-03T08:58:48Z</time>
      </trkpt>
      <trkpt lat="45.40514" lon="4.37964">
        <ele>630.6</ele>
        <time>2021-07-03T08:58:51Z</time>
      </trkpt>
      <trkpt lat="45.40511" lon="4.3796">
        <ele>631</ele>
        <time>2021-07-03T08:58:54Z</time>
      </trkpt>
      <trkpt lat="45.4051" lon="4.37959">
        <ele>631.2</ele>
        <time>2021-07-03T08:58:55Z</time>
      </trkpt>
      <trkpt lat="45.40501" lon="4.37951">
        <ele>632</ele>
        <time>2021-07-03T08:59:01Z</time>
      </trkpt>
      <trkpt lat="45.40499" lon="4.37947">
        <ele>632.2</ele>
        <time>2021-07-03T08:59:03Z</time>
      </trkpt>
      <trkpt lat="45.40489" lon="4.37932">
        <ele>633</ele>
        <time>2021-07-03T08:59:11Z</time>
      </trkpt>
      <trkpt lat="45.40487" lon="4.37928">
        <ele>633.2</ele>
        <time>2021-07-03T08:59:13Z</time>
      </trkpt>
      <trkpt lat="45.40484" lon="4.37923">
        <ele>633.6</ele>
        <time>2021-07-03T08:59:16Z</time>
      </trkpt>
      <trkpt lat="45.40482" lon="4.37917">
        <ele>634</ele>
        <time>2021-07-03T08:59:19Z</time>
      </trkpt>
      <trkpt lat="45.4048" lon="4.37913">
        <ele>634.2</ele>
        <time>2021-07-03T08:59:21Z</time>
      </trkpt>
      <trkpt lat="45.40479" lon="4.37911">
        <ele>634.4</ele>
        <time>2021-07-03T08:59:22Z</time>
      </trkpt>
      <trkpt lat="45.40474" lon="4.379">
        <ele>635</ele>
        <time>2021-07-03T08:59:28Z</time>
      </trkpt>
      <trkpt lat="45.40474" lon="4.37897">
        <ele>635.2</ele>
        <time>2021-07-03T08:59:30Z</time>
      </trkpt>
      <trkpt lat="45.40473" lon="4.37895">
        <ele>635.2</ele>
        <time>2021-07-03T08:59:31Z</time>
      </trkpt>
      <trkpt lat="45.40473" lon="4.37894">
        <ele>635.4</ele>
        <time>2021-07-03T08:59:32Z</time>
      </trkpt>
      <trkpt lat="45.40464" lon="4.37884">
        <ele>636.6</ele>
        <time>2021-07-03T08:59:39Z</time>
      </trkpt>
      <trkpt lat="45.40462" lon="4.37883">
        <ele>636.6</ele>
        <time>2021-07-03T08:59:40Z</time>
      </trkpt>
      <trkpt lat="45.4046" lon="4.37881">
        <ele>636.8</ele>
        <time>2021-07-03T08:59:41Z</time>
      </trkpt>
      <trkpt lat="45.40447" lon="4.37868">
        <ele>637.6</ele>
        <time>2021-07-03T08:59:49Z</time>
      </trkpt>
      <trkpt lat="45.40445" lon="4.37865">
        <ele>638</ele>
        <time>2021-07-03T08:59:51Z</time>
      </trkpt>
      <trkpt lat="45.40438" lon="4.37857">
        <ele>638.4</ele>
        <time>2021-07-03T08:59:56Z</time>
      </trkpt>
      <trkpt lat="45.40434" lon="4.37853">
        <ele>638.8</ele>
        <time>2021-07-03T08:59:59Z</time>
      </trkpt>
      <trkpt lat="45.40431" lon="4.3785">
        <ele>639</ele>
        <time>2021-07-03T09:00:01Z</time>
      </trkpt>
      <trkpt lat="45.40423" lon="4.37839">
        <ele>639.8</ele>
        <time>2021-07-03T09:00:09Z</time>
      </trkpt>
      <trkpt lat="45.4042" lon="4.37836">
        <ele>640</ele>
        <time>2021-07-03T09:00:11Z</time>
      </trkpt>
      <trkpt lat="45.40413" lon="4.37827">
        <ele>640.8</ele>
        <time>2021-07-03T09:00:17Z</time>
      </trkpt>
      <trkpt lat="45.40408" lon="4.3782">
        <ele>641.4</ele>
        <time>2021-07-03T09:00:21Z</time>
      </trkpt>
      <trkpt lat="45.40401" lon="4.37814">
        <ele>641.8</ele>
        <time>2021-07-03T09:00:25Z</time>
      </trkpt>
      <trkpt lat="45.40396" lon="4.37812">
        <ele>642.2</ele>
        <time>2021-07-03T09:00:28Z</time>
      </trkpt>
      <trkpt lat="45.40392" lon="4.37811">
        <ele>642.4</ele>
        <time>2021-07-03T09:00:30Z</time>
      </trkpt>
      <trkpt lat="45.4039" lon="4.3781">
        <ele>642.6</ele>
        <time>2021-07-03T09:00:31Z</time>
      </trkpt>
      <trkpt lat="45.40381" lon="4.37804">
        <ele>643</ele>
        <time>2021-07-03T09:00:37Z</time>
      </trkpt>
      <trkpt lat="45.40375" lon="4.37799">
        <ele>643.4</ele>
        <time>2021-07-03T09:00:41Z</time>
      </trkpt>
      <trkpt lat="45.40369" lon="4.37793">
        <ele>644</ele>
        <time>2021-07-03T09:00:45Z</time>
      </trkpt>
      <trkpt lat="45.40365" lon="4.37789">
        <ele>644.4</ele>
        <time>2021-07-03T09:00:48Z</time>
      </trkpt>
      <trkpt lat="45.40361" lon="4.37785">
        <ele>644.6</ele>
        <time>2021-07-03T09:00:51Z</time>
      </trkpt>
      <trkpt lat="45.40355" lon="4.37779">
        <ele>645</ele>
        <time>2021-07-03T09:00:56Z</time>
      </trkpt>
      <trkpt lat="45.4035" lon="4.37773">
        <ele>645.8</ele>
        <time>2021-07-03T09:01:00Z</time>
      </trkpt>
      <trkpt lat="45.40349" lon="4.37772">
        <ele>646</ele>
        <time>2021-07-03T09:01:01Z</time>
      </trkpt>
      <trkpt lat="45.40345" lon="4.37769">
        <ele>646.2</ele>
        <time>2021-07-03T09:01:04Z</time>
      </trkpt>
      <trkpt lat="45.40336" lon="4.3776">
        <ele>647</ele>
        <time>2021-07-03T09:01:11Z</time>
      </trkpt>
      <trkpt lat="45.40333" lon="4.37758">
        <ele>647.2</ele>
        <time>2021-07-03T09:01:13Z</time>
      </trkpt>
      <trkpt lat="45.40329" lon="4.37755">
        <ele>647.4</ele>
        <time>2021-07-03T09:01:15Z</time>
      </trkpt>
      <trkpt lat="45.40322" lon="4.37749">
        <ele>648.2</ele>
        <time>2021-07-03T09:01:21Z</time>
      </trkpt>
      <trkpt lat="45.40321" lon="4.37747">
        <ele>648.4</ele>
        <time>2021-07-03T09:01:22Z</time>
      </trkpt>
      <trkpt lat="45.40311" lon="4.37736">
        <ele>649.4</ele>
        <time>2021-07-03T09:01:30Z</time>
      </trkpt>
      <trkpt lat="45.4031" lon="4.37734">
        <ele>649.4</ele>
        <time>2021-07-03T09:01:31Z</time>
      </trkpt>
      <trkpt lat="45.40302" lon="4.37725">
        <ele>650.4</ele>
        <time>2021-07-03T09:01:38Z</time>
      </trkpt>
      <trkpt lat="45.40298" lon="4.3772">
        <ele>650.8</ele>
        <time>2021-07-03T09:01:41Z</time>
      </trkpt>
      <trkpt lat="45.4029" lon="4.3771">
        <ele>651.4</ele>
        <time>2021-07-03T09:01:47Z</time>
      </trkpt>
      <trkpt lat="45.40287" lon="4.37704">
        <ele>652</ele>
        <time>2021-07-03T09:01:50Z</time>
      </trkpt>
      <trkpt lat="45.40286" lon="4.37702">
        <ele>652</ele>
        <time>2021-07-03T09:01:51Z</time>
      </trkpt>
      <trkpt lat="45.40279" lon="4.37692">
        <ele>652.6</ele>
        <time>2021-07-03T09:01:57Z</time>
      </trkpt>
      <trkpt lat="45.40275" lon="4.37685">
        <ele>653</ele>
        <time>2021-07-03T09:02:01Z</time>
      </trkpt>
      <trkpt lat="45.40269" lon="4.37676">
        <ele>653.6</ele>
        <time>2021-07-03T09:02:06Z</time>
      </trkpt>
      <trkpt lat="45.40264" lon="4.37666">
        <ele>654.2</ele>
        <time>2021-07-03T09:02:11Z</time>
      </trkpt>
      <trkpt lat="45.40255" lon="4.37652">
        <ele>654.8</ele>
        <time>2021-07-03T09:02:17Z</time>
      </trkpt>
      <trkpt lat="45.40251" lon="4.37644">
        <ele>655.4</ele>
        <time>2021-07-03T09:02:21Z</time>
      </trkpt>
      <trkpt lat="45.40248" lon="4.37639">
        <ele>655.6</ele>
        <time>2021-07-03T09:02:24Z</time>
      </trkpt>
      <trkpt lat="45.40244" lon="4.37632">
        <ele>655.8</ele>
        <time>2021-07-03T09:02:27Z</time>
      </trkpt>
      <trkpt lat="45.40242" lon="4.37625">
        <ele>656</ele>
        <time>2021-07-03T09:02:30Z</time>
      </trkpt>
      <trkpt lat="45.40241" lon="4.37623">
        <ele>656.2</ele>
        <time>2021-07-03T09:02:31Z</time>
      </trkpt>
      <trkpt lat="45.40236" lon="4.37609">
        <ele>657</ele>
        <time>2021-07-03T09:02:36Z</time>
      </trkpt>
      <trkpt lat="45.40229" lon="4.37599">
        <ele>657.6</ele>
        <time>2021-07-03T09:02:41Z</time>
      </trkpt>
      <trkpt lat="45.40226" lon="4.37593">
        <ele>658</ele>
        <time>2021-07-03T09:02:44Z</time>
      </trkpt>
      <trkpt lat="45.40218" lon="4.37579">
        <ele>659</ele>
        <time>2021-07-03T09:02:51Z</time>
      </trkpt>
      <trkpt lat="45.40205" lon="4.37565">
        <ele>660</ele>
        <time>2021-07-03T09:03:00Z</time>
      </trkpt>
      <trkpt lat="45.40204" lon="4.37565">
        <ele>660</ele>
        <time>2021-07-03T09:03:01Z</time>
      </trkpt>
      <trkpt lat="45.40192" lon="4.37558">
        <ele>661</ele>
        <time>2021-07-03T09:03:08Z</time>
      </trkpt>
      <trkpt lat="45.40187" lon="4.37557">
        <ele>661.2</ele>
        <time>2021-07-03T09:03:11Z</time>
      </trkpt>
      <trkpt lat="45.40176" lon="4.37549">
        <ele>662</ele>
        <time>2021-07-03T09:03:17Z</time>
      </trkpt>
      <trkpt lat="45.40175" lon="4.37548">
        <ele>662.2</ele>
        <time>2021-07-03T09:03:18Z</time>
      </trkpt>
      <trkpt lat="45.40173" lon="4.37548">
        <ele>662.6</ele>
        <time>2021-07-03T09:03:20Z</time>
      </trkpt>
      <trkpt lat="45.40171" lon="4.37548">
        <ele>662.6</ele>
        <time>2021-07-03T09:03:21Z</time>
      </trkpt>
      <trkpt lat="45.40164" lon="4.3755">
        <ele>663.2</ele>
        <time>2021-07-03T09:03:25Z</time>
      </trkpt>
      <trkpt lat="45.40155" lon="4.37557">
        <ele>664</ele>
        <time>2021-07-03T09:03:31Z</time>
      </trkpt>
      <trkpt lat="45.40147" lon="4.37558">
        <ele>664.2</ele>
        <time>2021-07-03T09:03:35Z</time>
      </trkpt>
      <trkpt lat="45.40136" lon="4.37559">
        <ele>665</ele>
        <time>2021-07-03T09:03:41Z</time>
      </trkpt>
      <trkpt lat="45.4013" lon="4.3756">
        <ele>665.4</ele>
        <time>2021-07-03T09:03:44Z</time>
      </trkpt>
      <trkpt lat="45.40119" lon="4.37562">
        <ele>666.2</ele>
        <time>2021-07-03T09:03:51Z</time>
      </trkpt>
      <trkpt lat="45.40115" lon="4.37562">
        <ele>666.4</ele>
        <time>2021-07-03T09:03:53Z</time>
      </trkpt>
      <trkpt lat="45.40101" lon="4.37565">
        <ele>666.8</ele>
        <time>2021-07-03T09:04:01Z</time>
      </trkpt>
      <trkpt lat="45.40094" lon="4.3757">
        <ele>667.4</ele>
        <time>2021-07-03T09:04:07Z</time>
      </trkpt>
      <trkpt lat="45.40092" lon="4.37571">
        <ele>667.6</ele>
        <time>2021-07-03T09:04:08Z</time>
      </trkpt>
      <trkpt lat="45.40089" lon="4.37576">
        <ele>667.8</ele>
        <time>2021-07-03T09:04:11Z</time>
      </trkpt>
      <trkpt lat="45.40085" lon="4.37594">
        <ele>668.6</ele>
        <time>2021-07-03T09:04:18Z</time>
      </trkpt>
      <trkpt lat="45.40084" lon="4.37602">
        <ele>669.2</ele>
        <time>2021-07-03T09:04:21Z</time>
      </trkpt>
      <trkpt lat="45.40087" lon="4.37609">
        <ele>669.8</ele>
        <time>2021-07-03T09:04:24Z</time>
      </trkpt>
      <trkpt lat="45.401" lon="4.3762">
        <ele>670.6</ele>
        <time>2021-07-03T09:04:31Z</time>
      </trkpt>
      <trkpt lat="45.40102" lon="4.3762">
        <ele>670.8</ele>
        <time>2021-07-03T09:04:32Z</time>
      </trkpt>
      <trkpt lat="45.40118" lon="4.3762">
        <ele>671.8</ele>
        <time>2021-07-03T09:04:40Z</time>
      </trkpt>
      <trkpt lat="45.4012" lon="4.3762">
        <ele>672</ele>
        <time>2021-07-03T09:04:41Z</time>
      </trkpt>
      <trkpt lat="45.40122" lon="4.3762">
        <ele>672.2</ele>
        <time>2021-07-03T09:04:42Z</time>
      </trkpt>
      <trkpt lat="45.40136" lon="4.3762">
        <ele>673</ele>
        <time>2021-07-03T09:04:49Z</time>
      </trkpt>
      <trkpt lat="45.4014" lon="4.3762">
        <ele>673.2</ele>
        <time>2021-07-03T09:04:51Z</time>
      </trkpt>
      <trkpt lat="45.40155" lon="4.37628">
        <ele>674.2</ele>
        <time>2021-07-03T09:04:58Z</time>
      </trkpt>
      <trkpt lat="45.40158" lon="4.37631">
        <ele>674.4</ele>
        <time>2021-07-03T09:05:00Z</time>
      </trkpt>
      <trkpt lat="45.40159" lon="4.37633">
        <ele>674.6</ele>
        <time>2021-07-03T09:05:01Z</time>
      </trkpt>
      <trkpt lat="45.40166" lon="4.37642">
        <ele>675.2</ele>
        <time>2021-07-03T09:05:07Z</time>
      </trkpt>
      <trkpt lat="45.4017" lon="4.37649">
        <ele>675.2</ele>
        <time>2021-07-03T09:05:10Z</time>
      </trkpt>
      <trkpt lat="45.40171" lon="4.37651">
        <ele>675.4</ele>
        <time>2021-07-03T09:05:11Z</time>
      </trkpt>
      <trkpt lat="45.40176" lon="4.37662">
        <ele>676</ele>
        <time>2021-07-03T09:05:15Z</time>
      </trkpt>
      <trkpt lat="45.40179" lon="4.37666">
        <ele>676.4</ele>
        <time>2021-07-03T09:05:17Z</time>
      </trkpt>
      <trkpt lat="45.40183" lon="4.37676">
        <ele>676.8</ele>
        <time>2021-07-03T09:05:21Z</time>
      </trkpt>
      <trkpt lat="45.40188" lon="4.37689">
        <ele>677.4</ele>
        <time>2021-07-03T09:05:27Z</time>
      </trkpt>
      <trkpt lat="45.4019" lon="4.37698">
        <ele>677.8</ele>
        <time>2021-07-03T09:05:31Z</time>
      </trkpt>
      <trkpt lat="45.40192" lon="4.37708">
        <ele>678.4</ele>
        <time>2021-07-03T09:05:36Z</time>
      </trkpt>
      <trkpt lat="45.40194" lon="4.37713">
        <ele>678.6</ele>
        <time>2021-07-03T09:05:38Z</time>
      </trkpt>
      <trkpt lat="45.40197" lon="4.37719">
        <ele>679.2</ele>
        <time>2021-07-03T09:05:41Z</time>
      </trkpt>
      <trkpt lat="45.40199" lon="4.37726">
        <ele>679.6</ele>
        <time>2021-07-03T09:05:44Z</time>
      </trkpt>
      <trkpt lat="45.402" lon="4.37729">
        <ele>679.6</ele>
        <time>2021-07-03T09:05:45Z</time>
      </trkpt>
      <trkpt lat="45.40203" lon="4.37743">
        <ele>680.2</ele>
        <time>2021-07-03T09:05:51Z</time>
      </trkpt>
      <trkpt lat="45.40205" lon="4.37747">
        <ele>680.4</ele>
        <time>2021-07-03T09:05:53Z</time>
      </trkpt>
      <trkpt lat="45.40205" lon="4.37749">
        <ele>680.6</ele>
        <time>2021-07-03T09:05:54Z</time>
      </trkpt>
      <trkpt lat="45.40209" lon="4.37764">
        <ele>681.4</ele>
        <time>2021-07-03T09:06:01Z</time>
      </trkpt>
      <trkpt lat="45.4021" lon="4.37768">
        <ele>681.6</ele>
        <time>2021-07-03T09:06:03Z</time>
      </trkpt>
      <trkpt lat="45.40217" lon="4.37785">
        <ele>682.6</ele>
        <time>2021-07-03T09:06:11Z</time>
      </trkpt>
      <trkpt lat="45.40218" lon="4.37787">
        <ele>682.6</ele>
        <time>2021-07-03T09:06:12Z</time>
      </trkpt>
      <trkpt lat="45.40226" lon="4.37806">
        <ele>683.6</ele>
        <time>2021-07-03T09:06:21Z</time>
      </trkpt>
      <trkpt lat="45.40228" lon="4.37808">
        <ele>683.8</ele>
        <time>2021-07-03T09:06:22Z</time>
      </trkpt>
      <trkpt lat="45.40235" lon="4.37828">
        <ele>684.8</ele>
        <time>2021-07-03T09:06:31Z</time>
      </trkpt>
      <trkpt lat="45.40236" lon="4.3783">
        <ele>685</ele>
        <time>2021-07-03T09:06:32Z</time>
      </trkpt>
      <trkpt lat="45.40241" lon="4.37848">
        <ele>686</ele>
        <time>2021-07-03T09:06:40Z</time>
      </trkpt>
      <trkpt lat="45.40241" lon="4.3785">
        <ele>686</ele>
        <time>2021-07-03T09:06:41Z</time>
      </trkpt>
      <trkpt lat="45.40243" lon="4.37857">
        <ele>686.4</ele>
        <time>2021-07-03T09:06:44Z</time>
      </trkpt>
      <trkpt lat="45.40244" lon="4.37869">
        <ele>687</ele>
        <time>2021-07-03T09:06:49Z</time>
      </trkpt>
      <trkpt lat="45.40244" lon="4.37874">
        <ele>687.2</ele>
        <time>2021-07-03T09:06:51Z</time>
      </trkpt>
      <trkpt lat="45.40244" lon="4.37888">
        <ele>688.2</ele>
        <time>2021-07-03T09:06:57Z</time>
      </trkpt>
      <trkpt lat="45.40243" lon="4.37899">
        <ele>688.6</ele>
        <time>2021-07-03T09:07:01Z</time>
      </trkpt>
      <trkpt lat="45.40243" lon="4.37915">
        <ele>689.2</ele>
        <time>2021-07-03T09:07:08Z</time>
      </trkpt>
      <trkpt lat="45.40242" lon="4.37922">
        <ele>689.6</ele>
        <time>2021-07-03T09:07:11Z</time>
      </trkpt>
      <trkpt lat="45.40242" lon="4.37924">
        <ele>689.8</ele>
        <time>2021-07-03T09:07:12Z</time>
      </trkpt>
      <trkpt lat="45.40241" lon="4.37934">
        <ele>690.2</ele>
        <time>2021-07-03T09:07:16Z</time>
      </trkpt>
      <trkpt lat="45.4024" lon="4.37945">
        <ele>690.6</ele>
        <time>2021-07-03T09:07:21Z</time>
      </trkpt>
      <trkpt lat="45.4024" lon="4.37962">
        <ele>691.2</ele>
        <time>2021-07-03T09:07:28Z</time>
      </trkpt>
      <trkpt lat="45.40241" lon="4.37969">
        <ele>691.6</ele>
        <time>2021-07-03T09:07:31Z</time>
      </trkpt>
      <trkpt lat="45.40245" lon="4.37991">
        <ele>692.4</ele>
        <time>2021-07-03T09:07:39Z</time>
      </trkpt>
      <trkpt lat="45.40245" lon="4.37997">
        <ele>692.4</ele>
        <time>2021-07-03T09:07:41Z</time>
      </trkpt>
      <trkpt lat="45.40246" lon="4.38017">
        <ele>693.4</ele>
        <time>2021-07-03T09:07:48Z</time>
      </trkpt>
      <trkpt lat="45.40247" lon="4.38025">
        <ele>694</ele>
        <time>2021-07-03T09:07:51Z</time>
      </trkpt>
      <trkpt lat="45.40246" lon="4.38028">
        <ele>694</ele>
        <time>2021-07-03T09:07:52Z</time>
      </trkpt>
      <trkpt lat="45.40247" lon="4.38037">
        <ele>694.4</ele>
        <time>2021-07-03T09:07:56Z</time>
      </trkpt>
      <trkpt lat="45.40247" lon="4.38042">
        <ele>694.6</ele>
        <time>2021-07-03T09:07:58Z</time>
      </trkpt>
      <trkpt lat="45.40247" lon="4.38048">
        <ele>695</ele>
        <time>2021-07-03T09:08:01Z</time>
      </trkpt>
      <trkpt lat="45.40249" lon="4.38062">
        <ele>695.6</ele>
        <time>2021-07-03T09:08:07Z</time>
      </trkpt>
      <trkpt lat="45.40249" lon="4.38073">
        <ele>696.2</ele>
        <time>2021-07-03T09:08:11Z</time>
      </trkpt>
      <trkpt lat="45.4025" lon="4.3808">
        <ele>696.6</ele>
        <time>2021-07-03T09:08:14Z</time>
      </trkpt>
      <trkpt lat="45.40254" lon="4.38102">
        <ele>697.4</ele>
        <time>2021-07-03T09:08:21Z</time>
      </trkpt>
      <trkpt lat="45.40255" lon="4.38109">
        <ele>697.6</ele>
        <time>2021-07-03T09:08:23Z</time>
      </trkpt>
      <trkpt lat="45.40262" lon="4.38134">
        <ele>698.6</ele>
        <time>2021-07-03T09:08:31Z</time>
      </trkpt>
      <trkpt lat="45.40262" lon="4.38137">
        <ele>698.8</ele>
        <time>2021-07-03T09:08:32Z</time>
      </trkpt>
      <trkpt lat="45.40266" lon="4.38161">
        <ele>699.4</ele>
        <time>2021-07-03T09:08:41Z</time>
      </trkpt>
      <trkpt lat="45.40265" lon="4.38171">
        <ele>699.4</ele>
        <time>2021-07-03T09:08:45Z</time>
      </trkpt>
      <trkpt lat="45.4026" lon="4.38182">
        <ele>699.8</ele>
        <time>2021-07-03T09:08:50Z</time>
      </trkpt>
      <trkpt lat="45.4026" lon="4.38184">
        <ele>699.8</ele>
        <time>2021-07-03T09:08:51Z</time>
      </trkpt>
      <trkpt lat="45.40252" lon="4.38192">
        <ele>700.8</ele>
        <time>2021-07-03T09:08:57Z</time>
      </trkpt>
      <trkpt lat="45.40246" lon="4.38193">
        <ele>701.4</ele>
        <time>2021-07-03T09:09:01Z</time>
      </trkpt>
      <trkpt lat="45.40241" lon="4.38195">
        <ele>702</ele>
        <time>2021-07-03T09:09:04Z</time>
      </trkpt>
      <trkpt lat="45.40234" lon="4.38193">
        <ele>702.4</ele>
        <time>2021-07-03T09:09:08Z</time>
      </trkpt>
      <trkpt lat="45.40231" lon="4.38188">
        <ele>702.8</ele>
        <time>2021-07-03T09:09:11Z</time>
      </trkpt>
      <trkpt lat="45.4023" lon="4.38188">
        <ele>703</ele>
        <time>2021-07-03T09:09:12Z</time>
      </trkpt>
      <trkpt lat="45.40225" lon="4.38179">
        <ele>703.8</ele>
        <time>2021-07-03T09:09:19Z</time>
      </trkpt>
      <trkpt lat="45.40224" lon="4.38177">
        <ele>704</ele>
        <time>2021-07-03T09:09:20Z</time>
      </trkpt>
      <trkpt lat="45.40224" lon="4.38176">
        <ele>704</ele>
        <time>2021-07-03T09:09:21Z</time>
      </trkpt>
      <trkpt lat="45.40224" lon="4.38174">
        <ele>704.2</ele>
        <time>2021-07-03T09:09:22Z</time>
      </trkpt>
      <trkpt lat="45.40225" lon="4.38159">
        <ele>704.4</ele>
        <time>2021-07-03T09:09:27Z</time>
      </trkpt>
      <trkpt lat="45.40225" lon="4.38149">
        <ele>704.6</ele>
        <time>2021-07-03T09:09:30Z</time>
      </trkpt>
      <trkpt lat="45.40225" lon="4.38146">
        <ele>704.6</ele>
        <time>2021-07-03T09:09:31Z</time>
      </trkpt>
      <trkpt lat="45.40225" lon="4.38143">
        <ele>704.8</ele>
        <time>2021-07-03T09:09:32Z</time>
      </trkpt>
      <trkpt lat="45.40225" lon="4.38141">
        <ele>704.8</ele>
        <time>2021-07-03T09:09:33Z</time>
      </trkpt>
      <trkpt lat="45.40224" lon="4.38134">
        <ele>705</ele>
        <time>2021-07-03T09:09:36Z</time>
      </trkpt>
      <trkpt lat="45.40224" lon="4.38132">
        <ele>705.2</ele>
        <time>2021-07-03T09:09:37Z</time>
      </trkpt>
      <trkpt lat="45.40223" lon="4.38129">
        <ele>705.2</ele>
        <time>2021-07-03T09:09:38Z</time>
      </trkpt>
      <trkpt lat="45.40223" lon="4.38127">
        <ele>705.2</ele>
        <time>2021-07-03T09:09:39Z</time>
      </trkpt>
      <trkpt lat="45.40222" lon="4.38124">
        <ele>705.2</ele>
        <time>2021-07-03T09:09:40Z</time>
      </trkpt>
      <trkpt lat="45.40222" lon="4.38121">
        <ele>705.4</ele>
        <time>2021-07-03T09:09:41Z</time>
      </trkpt>
      <trkpt lat="45.4022" lon="4.38108">
        <ele>706</ele>
        <time>2021-07-03T09:09:46Z</time>
      </trkpt>
      <trkpt lat="45.4022" lon="4.38106">
        <ele>706.2</ele>
        <time>2021-07-03T09:09:47Z</time>
      </trkpt>
      <trkpt lat="45.40219" lon="4.38101">
        <ele>706.4</ele>
        <time>2021-07-03T09:09:50Z</time>
      </trkpt>
      <trkpt lat="45.40219" lon="4.38098">
        <ele>706.4</ele>
        <time>2021-07-03T09:09:51Z</time>
      </trkpt>
      <trkpt lat="45.40214" lon="4.38082">
        <ele>707.2</ele>
        <time>2021-07-03T09:09:59Z</time>
      </trkpt>
      <trkpt lat="45.40212" lon="4.38077">
        <ele>707.4</ele>
        <time>2021-07-03T09:10:01Z</time>
      </trkpt>
      <trkpt lat="45.40207" lon="4.38061">
        <ele>708.4</ele>
        <time>2021-07-03T09:10:07Z</time>
      </trkpt>
      <trkpt lat="45.40202" lon="4.38051">
        <ele>708.8</ele>
        <time>2021-07-03T09:10:11Z</time>
      </trkpt>
      <trkpt lat="45.40194" lon="4.38037">
        <ele>709.2</ele>
        <time>2021-07-03T09:10:17Z</time>
      </trkpt>
      <trkpt lat="45.40189" lon="4.38034">
        <ele>709.4</ele>
        <time>2021-07-03T09:10:20Z</time>
      </trkpt>
      <trkpt lat="45.40187" lon="4.38033">
        <ele>709.6</ele>
        <time>2021-07-03T09:10:21Z</time>
      </trkpt>
      <trkpt lat="45.40169" lon="4.38022">
        <ele>710.6</ele>
        <time>2021-07-03T09:10:31Z</time>
      </trkpt>
      <trkpt lat="45.40153" lon="4.38035">
        <ele>711.6</ele>
        <time>2021-07-03T09:10:40Z</time>
      </trkpt>
      <trkpt lat="45.40152" lon="4.38037">
        <ele>711.6</ele>
        <time>2021-07-03T09:10:41Z</time>
      </trkpt>
      <trkpt lat="45.40146" lon="4.38059">
        <ele>712.6</ele>
        <time>2021-07-03T09:10:50Z</time>
      </trkpt>
      <trkpt lat="45.40146" lon="4.38062">
        <ele>712.8</ele>
        <time>2021-07-03T09:10:51Z</time>
      </trkpt>
      <trkpt lat="45.40144" lon="4.38078">
        <ele>713.8</ele>
        <time>2021-07-03T09:10:57Z</time>
      </trkpt>
      <trkpt lat="45.40145" lon="4.3809">
        <ele>714</ele>
        <time>2021-07-03T09:11:01Z</time>
      </trkpt>
      <trkpt lat="45.40144" lon="4.38112">
        <ele>714.8</ele>
        <time>2021-07-03T09:11:09Z</time>
      </trkpt>
      <trkpt lat="45.40144" lon="4.38118">
        <ele>715.2</ele>
        <time>2021-07-03T09:11:11Z</time>
      </trkpt>
      <trkpt lat="45.40143" lon="4.38127">
        <ele>715.8</ele>
        <time>2021-07-03T09:11:14Z</time>
      </trkpt>
      <trkpt lat="45.40143" lon="4.38148">
        <ele>716.2</ele>
        <time>2021-07-03T09:11:21Z</time>
      </trkpt>
      <trkpt lat="45.40142" lon="4.38164">
        <ele>716.6</ele>
        <time>2021-07-03T09:11:26Z</time>
      </trkpt>
      <trkpt lat="45.40143" lon="4.38171">
        <ele>717</ele>
        <time>2021-07-03T09:11:28Z</time>
      </trkpt>
      <trkpt lat="45.40144" lon="4.38181">
        <ele>717.4</ele>
        <time>2021-07-03T09:11:31Z</time>
      </trkpt>
      <trkpt lat="45.40143" lon="4.38209">
        <ele>717.8</ele>
        <time>2021-07-03T09:11:41Z</time>
      </trkpt>
      <trkpt lat="45.40143" lon="4.38214">
        <ele>718</ele>
        <time>2021-07-03T09:11:43Z</time>
      </trkpt>
      <trkpt lat="45.4014" lon="4.38235">
        <ele>718.6</ele>
        <time>2021-07-03T09:11:51Z</time>
      </trkpt>
      <trkpt lat="45.40139" lon="4.38253">
        <ele>719</ele>
        <time>2021-07-03T09:11:58Z</time>
      </trkpt>
      <trkpt lat="45.40138" lon="4.38261">
        <ele>719.2</ele>
        <time>2021-07-03T09:12:01Z</time>
      </trkpt>
      <trkpt lat="45.40138" lon="4.38283">
        <ele>720.2</ele>
        <time>2021-07-03T09:12:09Z</time>
      </trkpt>
      <trkpt lat="45.40139" lon="4.38288">
        <ele>720.4</ele>
        <time>2021-07-03T09:12:11Z</time>
      </trkpt>
      <trkpt lat="45.40139" lon="4.38291">
        <ele>720.4</ele>
        <time>2021-07-03T09:12:12Z</time>
      </trkpt>
      <trkpt lat="45.40139" lon="4.38294">
        <ele>720.4</ele>
        <time>2021-07-03T09:12:13Z</time>
      </trkpt>
      <trkpt lat="45.40139" lon="4.38296">
        <ele>720.6</ele>
        <time>2021-07-03T09:12:14Z</time>
      </trkpt>
      <trkpt lat="45.40139" lon="4.38306">
        <ele>720.6</ele>
        <time>2021-07-03T09:12:17Z</time>
      </trkpt>
      <trkpt lat="45.4014" lon="4.38315">
        <ele>721</ele>
        <time>2021-07-03T09:12:20Z</time>
      </trkpt>
      <trkpt lat="45.4014" lon="4.38318">
        <ele>721.2</ele>
        <time>2021-07-03T09:12:21Z</time>
      </trkpt>
      <trkpt lat="45.40142" lon="4.3834">
        <ele>722.4</ele>
        <time>2021-07-03T09:12:29Z</time>
      </trkpt>
      <trkpt lat="45.40142" lon="4.38345">
        <ele>722.8</ele>
        <time>2021-07-03T09:12:31Z</time>
      </trkpt>
      <trkpt lat="45.40142" lon="4.38357">
        <ele>723.4</ele>
        <time>2021-07-03T09:12:36Z</time>
      </trkpt>
      <trkpt lat="45.40143" lon="4.38369">
        <ele>723.8</ele>
        <time>2021-07-03T09:12:41Z</time>
      </trkpt>
      <trkpt lat="45.40143" lon="4.38386">
        <ele>724.6</ele>
        <time>2021-07-03T09:12:49Z</time>
      </trkpt>
      <trkpt lat="45.40143" lon="4.3839">
        <ele>724.8</ele>
        <time>2021-07-03T09:12:51Z</time>
      </trkpt>
      <trkpt lat="45.40144" lon="4.38404">
        <ele>725.6</ele>
        <time>2021-07-03T09:12:58Z</time>
      </trkpt>
      <trkpt lat="45.40145" lon="4.38412">
        <ele>726</ele>
        <time>2021-07-03T09:13:01Z</time>
      </trkpt>
      <trkpt lat="45.40147" lon="4.38417">
        <ele>726.4</ele>
        <time>2021-07-03T09:13:03Z</time>
      </trkpt>
      <trkpt lat="45.40148" lon="4.38422">
        <ele>726.6</ele>
        <time>2021-07-03T09:13:05Z</time>
      </trkpt>
      <trkpt lat="45.40153" lon="4.38436">
        <ele>727.2</ele>
        <time>2021-07-03T09:13:11Z</time>
      </trkpt>
      <trkpt lat="45.40155" lon="4.38443">
        <ele>727.6</ele>
        <time>2021-07-03T09:13:14Z</time>
      </trkpt>
      <trkpt lat="45.40156" lon="4.38445">
        <ele>727.6</ele>
        <time>2021-07-03T09:13:15Z</time>
      </trkpt>
      <trkpt lat="45.40162" lon="4.38462">
        <ele>728.4</ele>
        <time>2021-07-03T09:13:21Z</time>
      </trkpt>
      <trkpt lat="45.40165" lon="4.38471">
        <ele>728.8</ele>
        <time>2021-07-03T09:13:24Z</time>
      </trkpt>
      <trkpt lat="45.40171" lon="4.38492">
        <ele>729.4</ele>
        <time>2021-07-03T09:13:31Z</time>
      </trkpt>
      <trkpt lat="45.40172" lon="4.385">
        <ele>729.8</ele>
        <time>2021-07-03T09:13:34Z</time>
      </trkpt>
      <trkpt lat="45.40171" lon="4.38515">
        <ele>730.4</ele>
        <time>2021-07-03T09:13:41Z</time>
      </trkpt>
      <trkpt lat="45.4017" lon="4.38519">
        <ele>730.8</ele>
        <time>2021-07-03T09:13:43Z</time>
      </trkpt>
      <trkpt lat="45.40167" lon="4.38542">
        <ele>731.8</ele>
        <time>2021-07-03T09:13:51Z</time>
      </trkpt>
      <trkpt lat="45.40167" lon="4.38545">
        <ele>732</ele>
        <time>2021-07-03T09:13:52Z</time>
      </trkpt>
      <trkpt lat="45.40167" lon="4.38553">
        <ele>732.4</ele>
        <time>2021-07-03T09:13:55Z</time>
      </trkpt>
      <trkpt lat="45.40165" lon="4.38567">
        <ele>732.6</ele>
        <time>2021-07-03T09:14:01Z</time>
      </trkpt>
      <trkpt lat="45.40164" lon="4.3857">
        <ele>733</ele>
        <time>2021-07-03T09:14:03Z</time>
      </trkpt>
      <trkpt lat="45.40161" lon="4.38586">
        <ele>733.8</ele>
        <time>2021-07-03T09:14:11Z</time>
      </trkpt>
      <trkpt lat="45.40161" lon="4.38589">
        <ele>734</ele>
        <time>2021-07-03T09:14:12Z</time>
      </trkpt>
      <trkpt lat="45.40159" lon="4.38609">
        <ele>735</ele>
        <time>2021-07-03T09:14:20Z</time>
      </trkpt>
      <trkpt lat="45.40159" lon="4.3861">
        <ele>735.2</ele>
        <time>2021-07-03T09:14:21Z</time>
      </trkpt>
      <trkpt lat="45.40159" lon="4.38615">
        <ele>735.4</ele>
        <time>2021-07-03T09:14:24Z</time>
      </trkpt>
      <trkpt lat="45.40159" lon="4.38616">
        <ele>735.6</ele>
        <time>2021-07-03T09:14:25Z</time>
      </trkpt>
      <trkpt lat="45.40159" lon="4.3862">
        <ele>735.8</ele>
        <time>2021-07-03T09:14:28Z</time>
      </trkpt>
      <trkpt lat="45.40159" lon="4.38624">
        <ele>736</ele>
        <time>2021-07-03T09:14:30Z</time>
      </trkpt>
      <trkpt lat="45.40159" lon="4.38626">
        <ele>736.2</ele>
        <time>2021-07-03T09:14:31Z</time>
      </trkpt>
      <trkpt lat="45.40159" lon="4.38633">
        <ele>736.4</ele>
        <time>2021-07-03T09:14:34Z</time>
      </trkpt>
      <trkpt lat="45.40159" lon="4.38637">
        <ele>736.8</ele>
        <time>2021-07-03T09:14:36Z</time>
      </trkpt>
      <trkpt lat="45.40159" lon="4.38638">
        <ele>736.8</ele>
        <time>2021-07-03T09:14:37Z</time>
      </trkpt>
      <trkpt lat="45.40159" lon="4.38643">
        <ele>737</ele>
        <time>2021-07-03T09:14:39Z</time>
      </trkpt>
      <trkpt lat="45.40158" lon="4.38645">
        <ele>737</ele>
        <time>2021-07-03T09:14:40Z</time>
      </trkpt>
      <trkpt lat="45.40158" lon="4.38647">
        <ele>737.2</ele>
        <time>2021-07-03T09:14:41Z</time>
      </trkpt>
      <trkpt lat="45.40156" lon="4.38661">
        <ele>737.8</ele>
        <time>2021-07-03T09:14:46Z</time>
      </trkpt>
      <trkpt lat="45.40156" lon="4.38665">
        <ele>738</ele>
        <time>2021-07-03T09:14:48Z</time>
      </trkpt>
      <trkpt lat="45.40157" lon="4.38669">
        <ele>738.2</ele>
        <time>2021-07-03T09:14:50Z</time>
      </trkpt>
      <trkpt lat="45.40157" lon="4.38672">
        <ele>738.2</ele>
        <time>2021-07-03T09:14:51Z</time>
      </trkpt>
      <trkpt lat="45.40157" lon="4.38674">
        <ele>738.4</ele>
        <time>2021-07-03T09:14:52Z</time>
      </trkpt>
      <trkpt lat="45.40157" lon="4.38682">
        <ele>738.8</ele>
        <time>2021-07-03T09:14:56Z</time>
      </trkpt>
      <trkpt lat="45.40157" lon="4.38687">
        <ele>739.2</ele>
        <time>2021-07-03T09:14:58Z</time>
      </trkpt>
      <trkpt lat="45.40157" lon="4.38693">
        <ele>739.6</ele>
        <time>2021-07-03T09:15:00Z</time>
      </trkpt>
      <trkpt lat="45.40157" lon="4.38695">
        <ele>739.6</ele>
        <time>2021-07-03T09:15:01Z</time>
      </trkpt>
      <trkpt lat="45.40156" lon="4.38698">
        <ele>739.8</ele>
        <time>2021-07-03T09:15:02Z</time>
      </trkpt>
      <trkpt lat="45.40152" lon="4.38711">
        <ele>740.2</ele>
        <time>2021-07-03T09:15:07Z</time>
      </trkpt>
      <trkpt lat="45.40151" lon="4.38713">
        <ele>740.4</ele>
        <time>2021-07-03T09:15:08Z</time>
      </trkpt>
      <trkpt lat="45.40152" lon="4.38717">
        <ele>740.4</ele>
        <time>2021-07-03T09:15:10Z</time>
      </trkpt>
      <trkpt lat="45.40153" lon="4.38719">
        <ele>740.6</ele>
        <time>2021-07-03T09:15:11Z</time>
      </trkpt>
      <trkpt lat="45.40155" lon="4.38726">
        <ele>741.2</ele>
        <time>2021-07-03T09:15:14Z</time>
      </trkpt>
      <trkpt lat="45.40156" lon="4.38728">
        <ele>741.2</ele>
        <time>2021-07-03T09:15:15Z</time>
      </trkpt>
      <trkpt lat="45.40157" lon="4.3873">
        <ele>741.4</ele>
        <time>2021-07-03T09:15:16Z</time>
      </trkpt>
      <trkpt lat="45.40158" lon="4.38735">
        <ele>741.6</ele>
        <time>2021-07-03T09:15:18Z</time>
      </trkpt>
      <trkpt lat="45.4016" lon="4.38741">
        <ele>742</ele>
        <time>2021-07-03T09:15:21Z</time>
      </trkpt>
      <trkpt lat="45.4016" lon="4.3875">
        <ele>742.2</ele>
        <time>2021-07-03T09:15:24Z</time>
      </trkpt>
      <trkpt lat="45.4016" lon="4.38752">
        <ele>742.4</ele>
        <time>2021-07-03T09:15:25Z</time>
      </trkpt>
      <trkpt lat="45.4016" lon="4.38758">
        <ele>742.6</ele>
        <time>2021-07-03T09:15:27Z</time>
      </trkpt>
      <trkpt lat="45.40159" lon="4.3877">
        <ele>743.2</ele>
        <time>2021-07-03T09:15:31Z</time>
      </trkpt>
      <trkpt lat="45.40158" lon="4.38773">
        <ele>743.2</ele>
        <time>2021-07-03T09:15:32Z</time>
      </trkpt>
      <trkpt lat="45.40157" lon="4.38784">
        <ele>743.6</ele>
        <time>2021-07-03T09:15:35Z</time>
      </trkpt>
      <trkpt lat="45.40157" lon="4.38787">
        <ele>743.8</ele>
        <time>2021-07-03T09:15:36Z</time>
      </trkpt>
      <trkpt lat="45.40158" lon="4.38805">
        <ele>744.2</ele>
        <time>2021-07-03T09:15:41Z</time>
      </trkpt>
      <trkpt lat="45.40156" lon="4.38812">
        <ele>744.4</ele>
        <time>2021-07-03T09:15:43Z</time>
      </trkpt>
      <trkpt lat="45.40153" lon="4.38821">
        <ele>744.8</ele>
        <time>2021-07-03T09:15:45Z</time>
      </trkpt>
      <trkpt lat="45.40153" lon="4.38825">
        <ele>744.8</ele>
        <time>2021-07-03T09:15:46Z</time>
      </trkpt>
      <trkpt lat="45.40152" lon="4.38831">
        <ele>745.2</ele>
        <time>2021-07-03T09:15:48Z</time>
      </trkpt>
      <trkpt lat="45.40152" lon="4.38839">
        <ele>745.4</ele>
        <time>2021-07-03T09:15:51Z</time>
      </trkpt>
      <trkpt lat="45.40148" lon="4.38853">
        <ele>745.8</ele>
        <time>2021-07-03T09:15:56Z</time>
      </trkpt>
      <trkpt lat="45.40144" lon="4.38865">
        <ele>746.6</ele>
        <time>2021-07-03T09:16:01Z</time>
      </trkpt>
      <trkpt lat="45.40143" lon="4.38873">
        <ele>746.6</ele>
        <time>2021-07-03T09:16:04Z</time>
      </trkpt>
      <trkpt lat="45.40141" lon="4.38881">
        <ele>746.8</ele>
        <time>2021-07-03T09:16:07Z</time>
      </trkpt>
      <trkpt lat="45.4014" lon="4.38884">
        <ele>746.8</ele>
        <time>2021-07-03T09:16:08Z</time>
      </trkpt>
      <trkpt lat="45.40138" lon="4.3889">
        <ele>747.4</ele>
        <time>2021-07-03T09:16:11Z</time>
      </trkpt>
      <trkpt lat="45.40136" lon="4.38893">
        <ele>747.6</ele>
        <time>2021-07-03T09:16:13Z</time>
      </trkpt>
      <trkpt lat="45.40135" lon="4.38893">
        <ele>747.8</ele>
        <time>2021-07-03T09:16:14Z</time>
      </trkpt>
      <trkpt lat="45.40131" lon="4.38898">
        <ele>748.2</ele>
        <time>2021-07-03T09:16:18Z</time>
      </trkpt>
      <trkpt lat="45.40127" lon="4.38901">
        <ele>748.6</ele>
        <time>2021-07-03T09:16:21Z</time>
      </trkpt>
      <trkpt lat="45.40126" lon="4.38902">
        <ele>748.8</ele>
        <time>2021-07-03T09:16:22Z</time>
      </trkpt>
      <trkpt lat="45.40116" lon="4.3892">
        <ele>749.8</ele>
        <time>2021-07-03T09:16:30Z</time>
      </trkpt>
      <trkpt lat="45.40115" lon="4.38922">
        <ele>750</ele>
        <time>2021-07-03T09:16:31Z</time>
      </trkpt>
      <trkpt lat="45.40111" lon="4.38931">
        <ele>750.2</ele>
        <time>2021-07-03T09:16:36Z</time>
      </trkpt>
      <trkpt lat="45.40107" lon="4.38942">
        <ele>750.6</ele>
        <time>2021-07-03T09:16:41Z</time>
      </trkpt>
      <trkpt lat="45.40105" lon="4.38948">
        <ele>751</ele>
        <time>2021-07-03T09:16:43Z</time>
      </trkpt>
      <trkpt lat="45.40101" lon="4.38972">
        <ele>752.2</ele>
        <time>2021-07-03T09:16:51Z</time>
      </trkpt>
      <trkpt lat="45.40101" lon="4.38997">
        <ele>753</ele>
        <time>2021-07-03T09:16:59Z</time>
      </trkpt>
      <trkpt lat="45.40103" lon="4.39003">
        <ele>753</ele>
        <time>2021-07-03T09:17:01Z</time>
      </trkpt>
      <trkpt lat="45.40103" lon="4.39006">
        <ele>753.2</ele>
        <time>2021-07-03T09:17:02Z</time>
      </trkpt>
      <trkpt lat="45.40105" lon="4.39014">
        <ele>753.4</ele>
        <time>2021-07-03T09:17:05Z</time>
      </trkpt>
      <trkpt lat="45.40106" lon="4.39029">
        <ele>754.2</ele>
        <time>2021-07-03T09:17:11Z</time>
      </trkpt>
      <trkpt lat="45.40106" lon="4.39031">
        <ele>754.4</ele>
        <time>2021-07-03T09:17:12Z</time>
      </trkpt>
      <trkpt lat="45.40106" lon="4.39033">
        <ele>754.4</ele>
        <time>2021-07-03T09:17:13Z</time>
      </trkpt>
      <trkpt lat="45.40105" lon="4.39035">
        <ele>754.6</ele>
        <time>2021-07-03T09:17:14Z</time>
      </trkpt>
      <trkpt lat="45.40105" lon="4.39039">
        <ele>754.8</ele>
        <time>2021-07-03T09:17:16Z</time>
      </trkpt>
      <trkpt lat="45.40104" lon="4.39046">
        <ele>755.4</ele>
        <time>2021-07-03T09:17:19Z</time>
      </trkpt>
      <trkpt lat="45.40104" lon="4.3905">
        <ele>755.6</ele>
        <time>2021-07-03T09:17:21Z</time>
      </trkpt>
      <trkpt lat="45.40104" lon="4.39054">
        <ele>755.6</ele>
        <time>2021-07-03T09:17:23Z</time>
      </trkpt>
      <trkpt lat="45.40105" lon="4.39058">
        <ele>755.8</ele>
        <time>2021-07-03T09:17:24Z</time>
      </trkpt>
      <trkpt lat="45.40106" lon="4.3906">
        <ele>755.8</ele>
        <time>2021-07-03T09:17:25Z</time>
      </trkpt>
      <trkpt lat="45.40107" lon="4.39071">
        <ele>756.4</ele>
        <time>2021-07-03T09:17:29Z</time>
      </trkpt>
      <trkpt lat="45.40108" lon="4.39073">
        <ele>756.6</ele>
        <time>2021-07-03T09:17:30Z</time>
      </trkpt>
      <trkpt lat="45.40109" lon="4.39075">
        <ele>756.8</ele>
        <time>2021-07-03T09:17:31Z</time>
      </trkpt>
      <trkpt lat="45.40111" lon="4.39088">
        <ele>757.4</ele>
        <time>2021-07-03T09:17:37Z</time>
      </trkpt>
      <trkpt lat="45.40112" lon="4.39093">
        <ele>757.6</ele>
        <time>2021-07-03T09:17:39Z</time>
      </trkpt>
      <trkpt lat="45.40114" lon="4.39098">
        <ele>757.8</ele>
        <time>2021-07-03T09:17:41Z</time>
      </trkpt>
      <trkpt lat="45.40119" lon="4.39114">
        <ele>758.6</ele>
        <time>2021-07-03T09:17:48Z</time>
      </trkpt>
      <trkpt lat="45.40121" lon="4.39121">
        <ele>759</ele>
        <time>2021-07-03T09:17:51Z</time>
      </trkpt>
      <trkpt lat="45.40122" lon="4.3914">
        <ele>759.6</ele>
        <time>2021-07-03T09:17:59Z</time>
      </trkpt>
      <trkpt lat="45.40123" lon="4.39145">
        <ele>760</ele>
        <time>2021-07-03T09:18:01Z</time>
      </trkpt>
      <trkpt lat="45.40126" lon="4.39162">
        <ele>760.8</ele>
        <time>2021-07-03T09:18:08Z</time>
      </trkpt>
      <trkpt lat="45.40128" lon="4.39169">
        <ele>761</ele>
        <time>2021-07-03T09:18:11Z</time>
      </trkpt>
      <trkpt lat="45.4013" lon="4.39176">
        <ele>761.2</ele>
        <time>2021-07-03T09:18:14Z</time>
      </trkpt>
      <trkpt lat="45.40132" lon="4.39187">
        <ele>761.8</ele>
        <time>2021-07-03T09:18:18Z</time>
      </trkpt>
      <trkpt lat="45.40133" lon="4.39194">
        <ele>762</ele>
        <time>2021-07-03T09:18:21Z</time>
      </trkpt>
      <trkpt lat="45.40139" lon="4.39206">
        <ele>762.8</ele>
        <time>2021-07-03T09:18:26Z</time>
      </trkpt>
      <trkpt lat="45.40144" lon="4.39216">
        <ele>763.4</ele>
        <time>2021-07-03T09:18:31Z</time>
      </trkpt>
      <trkpt lat="45.40145" lon="4.39223">
        <ele>764</ele>
        <time>2021-07-03T09:18:34Z</time>
      </trkpt>
      <trkpt lat="45.40147" lon="4.39239">
        <ele>764.6</ele>
        <time>2021-07-03T09:18:41Z</time>
      </trkpt>
      <trkpt lat="45.40148" lon="4.39249">
        <ele>765</ele>
        <time>2021-07-03T09:18:45Z</time>
      </trkpt>
      <trkpt lat="45.40149" lon="4.39251">
        <ele>765.2</ele>
        <time>2021-07-03T09:18:46Z</time>
      </trkpt>
      <trkpt lat="45.4015" lon="4.39256">
        <ele>765.4</ele>
        <time>2021-07-03T09:18:48Z</time>
      </trkpt>
      <trkpt lat="45.40151" lon="4.3926">
        <ele>765.6</ele>
        <time>2021-07-03T09:18:50Z</time>
      </trkpt>
      <trkpt lat="45.40151" lon="4.39264">
        <ele>765.6</ele>
        <time>2021-07-03T09:18:51Z</time>
      </trkpt>
      <trkpt lat="45.40152" lon="4.3927">
        <ele>766</ele>
        <time>2021-07-03T09:18:53Z</time>
      </trkpt>
      <trkpt lat="45.40158" lon="4.3929">
        <ele>767</ele>
        <time>2021-07-03T09:19:00Z</time>
      </trkpt>
      <trkpt lat="45.40158" lon="4.39292">
        <ele>767.2</ele>
        <time>2021-07-03T09:19:01Z</time>
      </trkpt>
      <trkpt lat="45.40163" lon="4.39318">
        <ele>768</ele>
        <time>2021-07-03T09:19:10Z</time>
      </trkpt>
      <trkpt lat="45.40163" lon="4.39322">
        <ele>768.2</ele>
        <time>2021-07-03T09:19:11Z</time>
      </trkpt>
      <trkpt lat="45.40169" lon="4.39349">
        <ele>769.2</ele>
        <time>2021-07-03T09:19:20Z</time>
      </trkpt>
      <trkpt lat="45.40169" lon="4.39352">
        <ele>769.4</ele>
        <time>2021-07-03T09:19:21Z</time>
      </trkpt>
      <trkpt lat="45.40166" lon="4.39378">
        <ele>770.4</ele>
        <time>2021-07-03T09:19:30Z</time>
      </trkpt>
      <trkpt lat="45.40165" lon="4.3938">
        <ele>770.4</ele>
        <time>2021-07-03T09:19:31Z</time>
      </trkpt>
      <trkpt lat="45.40159" lon="4.39397">
        <ele>771.6</ele>
        <time>2021-07-03T09:19:38Z</time>
      </trkpt>
      <trkpt lat="45.40156" lon="4.39403">
        <ele>771.8</ele>
        <time>2021-07-03T09:19:41Z</time>
      </trkpt>
      <trkpt lat="45.40151" lon="4.39409">
        <ele>772.2</ele>
        <time>2021-07-03T09:19:45Z</time>
      </trkpt>
      <trkpt lat="45.40146" lon="4.39415">
        <ele>772.6</ele>
        <time>2021-07-03T09:19:49Z</time>
      </trkpt>
      <trkpt lat="45.40144" lon="4.39417">
        <ele>772.8</ele>
        <time>2021-07-03T09:19:51Z</time>
      </trkpt>
      <trkpt lat="45.40134" lon="4.3943">
        <ele>773.6</ele>
        <time>2021-07-03T09:19:59Z</time>
      </trkpt>
      <trkpt lat="45.40132" lon="4.39433">
        <ele>773.8</ele>
        <time>2021-07-03T09:20:01Z</time>
      </trkpt>
      <trkpt lat="45.4013" lon="4.39437">
        <ele>774</ele>
        <time>2021-07-03T09:20:03Z</time>
      </trkpt>
      <trkpt lat="45.40125" lon="4.39443">
        <ele>774.8</ele>
        <time>2021-07-03T09:20:07Z</time>
      </trkpt>
      <trkpt lat="45.4012" lon="4.39448">
        <ele>775.4</ele>
        <time>2021-07-03T09:20:11Z</time>
      </trkpt>
      <trkpt lat="45.40114" lon="4.39455">
        <ele>775.8</ele>
        <time>2021-07-03T09:20:15Z</time>
      </trkpt>
      <trkpt lat="45.40105" lon="4.39466">
        <ele>776.6</ele>
        <time>2021-07-03T09:20:21Z</time>
      </trkpt>
      <trkpt lat="45.40102" lon="4.39469">
        <ele>776.8</ele>
        <time>2021-07-03T09:20:23Z</time>
      </trkpt>
      <trkpt lat="45.40091" lon="4.39477">
        <ele>777.8</ele>
        <time>2021-07-03T09:20:30Z</time>
      </trkpt>
      <trkpt lat="45.40089" lon="4.39479">
        <ele>778</ele>
        <time>2021-07-03T09:20:32Z</time>
      </trkpt>
      <trkpt lat="45.40086" lon="4.39482">
        <ele>778.2</ele>
        <time>2021-07-03T09:20:35Z</time>
      </trkpt>
      <trkpt lat="45.40082" lon="4.39485">
        <ele>779</ele>
        <time>2021-07-03T09:20:39Z</time>
      </trkpt>
      <trkpt lat="45.40078" lon="4.39488">
        <ele>779.6</ele>
        <time>2021-07-03T09:20:42Z</time>
      </trkpt>
      <trkpt lat="45.40075" lon="4.39489">
        <ele>779.6</ele>
        <time>2021-07-03T09:20:44Z</time>
      </trkpt>
      <trkpt lat="45.40072" lon="4.39491">
        <ele>780</ele>
        <time>2021-07-03T09:20:47Z</time>
      </trkpt>
      <trkpt lat="45.40067" lon="4.39493">
        <ele>780.6</ele>
        <time>2021-07-03T09:20:50Z</time>
      </trkpt>
      <trkpt lat="45.40065" lon="4.39494">
        <ele>780.8</ele>
        <time>2021-07-03T09:20:52Z</time>
      </trkpt>
      <trkpt lat="45.40063" lon="4.39495">
        <ele>780.8</ele>
        <time>2021-07-03T09:20:53Z</time>
      </trkpt>
      <trkpt lat="45.40061" lon="4.39497">
        <ele>781.2</ele>
        <time>2021-07-03T09:20:55Z</time>
      </trkpt>
      <trkpt lat="45.40059" lon="4.39498">
        <ele>781.2</ele>
        <time>2021-07-03T09:20:56Z</time>
      </trkpt>
      <trkpt lat="45.40051" lon="4.39505">
        <ele>782</ele>
        <time>2021-07-03T09:21:01Z</time>
      </trkpt>
      <trkpt lat="45.40049" lon="4.39507">
        <ele>782</ele>
        <time>2021-07-03T09:21:02Z</time>
      </trkpt>
      <trkpt lat="45.40048" lon="4.39508">
        <ele>782.2</ele>
        <time>2021-07-03T09:21:03Z</time>
      </trkpt>
      <trkpt lat="45.40038" lon="4.39515">
        <ele>782.6</ele>
        <time>2021-07-03T09:21:09Z</time>
      </trkpt>
      <trkpt lat="45.40032" lon="4.39521">
        <ele>782.8</ele>
        <time>2021-07-03T09:21:12Z</time>
      </trkpt>
      <trkpt lat="45.40029" lon="4.39525">
        <ele>783.2</ele>
        <time>2021-07-03T09:21:14Z</time>
      </trkpt>
      <trkpt lat="45.40026" lon="4.39532">
        <ele>783.8</ele>
        <time>2021-07-03T09:21:17Z</time>
      </trkpt>
      <trkpt lat="45.40021" lon="4.39544">
        <ele>784.4</ele>
        <time>2021-07-03T09:21:22Z</time>
      </trkpt>
      <trkpt lat="45.40016" lon="4.39569">
        <ele>785.6</ele>
        <time>2021-07-03T09:21:31Z</time>
      </trkpt>
      <trkpt lat="45.40016" lon="4.39572">
        <ele>785.8</ele>
        <time>2021-07-03T09:21:32Z</time>
      </trkpt>
      <trkpt lat="45.40011" lon="4.39594">
        <ele>786.6</ele>
        <time>2021-07-03T09:21:40Z</time>
      </trkpt>
      <trkpt lat="45.40011" lon="4.39599">
        <ele>787</ele>
        <time>2021-07-03T09:21:42Z</time>
      </trkpt>
      <trkpt lat="45.40007" lon="4.39616">
        <ele>787.8</ele>
        <time>2021-07-03T09:21:49Z</time>
      </trkpt>
      <trkpt lat="45.40006" lon="4.39623">
        <ele>788.2</ele>
        <time>2021-07-03T09:21:52Z</time>
      </trkpt>
      <trkpt lat="45.40004" lon="4.39631">
        <ele>788.8</ele>
        <time>2021-07-03T09:21:55Z</time>
      </trkpt>
      <trkpt lat="45.39998" lon="4.39647">
        <ele>789.8</ele>
        <time>2021-07-03T09:22:02Z</time>
      </trkpt>
      <trkpt lat="45.39996" lon="4.39651">
        <ele>790</ele>
        <time>2021-07-03T09:22:04Z</time>
      </trkpt>
      <trkpt lat="45.39985" lon="4.39667">
        <ele>791</ele>
        <time>2021-07-03T09:22:12Z</time>
      </trkpt>
      <trkpt lat="45.39971" lon="4.39682">
        <ele>792.2</ele>
        <time>2021-07-03T09:22:21Z</time>
      </trkpt>
      <trkpt lat="45.39969" lon="4.39683">
        <ele>792.4</ele>
        <time>2021-07-03T09:22:22Z</time>
      </trkpt>
      <trkpt lat="45.39961" lon="4.39689">
        <ele>792.6</ele>
        <time>2021-07-03T09:22:27Z</time>
      </trkpt>
      <trkpt lat="45.39956" lon="4.39692">
        <ele>793.2</ele>
        <time>2021-07-03T09:22:30Z</time>
      </trkpt>
      <trkpt lat="45.39954" lon="4.39693">
        <ele>793.6</ele>
        <time>2021-07-03T09:22:31Z</time>
      </trkpt>
      <trkpt lat="45.39953" lon="4.39694">
        <ele>793.8</ele>
        <time>2021-07-03T09:22:32Z</time>
      </trkpt>
      <trkpt lat="45.39949" lon="4.39696">
        <ele>794.2</ele>
        <time>2021-07-03T09:22:35Z</time>
      </trkpt>
      <trkpt lat="45.39946" lon="4.39698">
        <ele>794.2</ele>
        <time>2021-07-03T09:22:36Z</time>
      </trkpt>
      <trkpt lat="45.39939" lon="4.39702">
        <ele>794.8</ele>
        <time>2021-07-03T09:22:42Z</time>
      </trkpt>
      <trkpt lat="45.39937" lon="4.39703">
        <ele>795</ele>
        <time>2021-07-03T09:22:43Z</time>
      </trkpt>
      <trkpt lat="45.39931" lon="4.39706">
        <ele>795.4</ele>
        <time>2021-07-03T09:22:46Z</time>
      </trkpt>
      <trkpt lat="45.39919" lon="4.39713">
        <ele>796.4</ele>
        <time>2021-07-03T09:22:53Z</time>
      </trkpt>
      <trkpt lat="45.39917" lon="4.39714">
        <ele>796.6</ele>
        <time>2021-07-03T09:22:54Z</time>
      </trkpt>
      <trkpt lat="45.39906" lon="4.3972">
        <ele>797.6</ele>
        <time>2021-07-03T09:23:00Z</time>
      </trkpt>
      <trkpt lat="45.399" lon="4.39724">
        <ele>798.2</ele>
        <time>2021-07-03T09:23:03Z</time>
      </trkpt>
      <trkpt lat="45.39892" lon="4.3973">
        <ele>798.8</ele>
        <time>2021-07-03T09:23:08Z</time>
      </trkpt>
      <trkpt lat="45.39883" lon="4.39735">
        <ele>799.8</ele>
        <time>2021-07-03T09:23:13Z</time>
      </trkpt>
      <trkpt lat="45.39872" lon="4.39747">
        <ele>800.8</ele>
        <time>2021-07-03T09:23:20Z</time>
      </trkpt>
      <trkpt lat="45.39868" lon="4.39753">
        <ele>801.2</ele>
        <time>2021-07-03T09:23:23Z</time>
      </trkpt>
      <trkpt lat="45.39862" lon="4.39759">
        <ele>802</ele>
        <time>2021-07-03T09:23:27Z</time>
      </trkpt>
      <trkpt lat="45.39854" lon="4.39768">
        <ele>802.4</ele>
        <time>2021-07-03T09:23:33Z</time>
      </trkpt>
      <trkpt lat="45.39849" lon="4.39774">
        <ele>803</ele>
        <time>2021-07-03T09:23:37Z</time>
      </trkpt>
      <trkpt lat="45.39841" lon="4.39783">
        <ele>803.8</ele>
        <time>2021-07-03T09:23:43Z</time>
      </trkpt>
      <trkpt lat="45.39837" lon="4.39786">
        <ele>804</ele>
        <time>2021-07-03T09:23:46Z</time>
      </trkpt>
      <trkpt lat="45.39832" lon="4.39792">
        <ele>804.4</ele>
        <time>2021-07-03T09:23:50Z</time>
      </trkpt>
      <trkpt lat="45.39829" lon="4.39797">
        <ele>804.8</ele>
        <time>2021-07-03T09:23:53Z</time>
      </trkpt>
      <trkpt lat="45.39824" lon="4.39802">
        <ele>805.2</ele>
        <time>2021-07-03T09:23:56Z</time>
      </trkpt>
      <trkpt lat="45.39816" lon="4.39812">
        <ele>806.2</ele>
        <time>2021-07-03T09:24:02Z</time>
      </trkpt>
      <trkpt lat="45.39815" lon="4.39814">
        <ele>806.2</ele>
        <time>2021-07-03T09:24:03Z</time>
      </trkpt>
      <trkpt lat="45.39802" lon="4.3983">
        <ele>807.2</ele>
        <time>2021-07-03T09:24:12Z</time>
      </trkpt>
      <trkpt lat="45.39801" lon="4.39831">
        <ele>807.2</ele>
        <time>2021-07-03T09:24:13Z</time>
      </trkpt>
      <trkpt lat="45.39797" lon="4.39835">
        <ele>807.4</ele>
        <time>2021-07-03T09:24:16Z</time>
      </trkpt>
      <trkpt lat="45.3979" lon="4.39844">
        <ele>808.4</ele>
        <time>2021-07-03T09:24:22Z</time>
      </trkpt>
      <trkpt lat="45.39789" lon="4.39846">
        <ele>808.8</ele>
        <time>2021-07-03T09:24:23Z</time>
      </trkpt>
      <trkpt lat="45.39781" lon="4.39859">
        <ele>809.4</ele>
        <time>2021-07-03T09:24:29Z</time>
      </trkpt>
      <trkpt lat="45.39779" lon="4.39864">
        <ele>809.8</ele>
        <time>2021-07-03T09:24:31Z</time>
      </trkpt>
      <trkpt lat="45.39776" lon="4.39869">
        <ele>810</ele>
        <time>2021-07-03T09:24:33Z</time>
      </trkpt>
      <trkpt lat="45.39772" lon="4.39877">
        <ele>810.6</ele>
        <time>2021-07-03T09:24:37Z</time>
      </trkpt>
      <trkpt lat="45.39766" lon="4.3989">
        <ele>811.4</ele>
        <time>2021-07-03T09:24:43Z</time>
      </trkpt>
      <trkpt lat="45.39762" lon="4.39898">
        <ele>811.8</ele>
        <time>2021-07-03T09:24:47Z</time>
      </trkpt>
      <trkpt lat="45.39756" lon="4.39909">
        <ele>812.4</ele>
        <time>2021-07-03T09:24:53Z</time>
      </trkpt>
      <trkpt lat="45.39753" lon="4.39916">
        <ele>813</ele>
        <time>2021-07-03T09:24:57Z</time>
      </trkpt>
      <trkpt lat="45.39748" lon="4.3993">
        <ele>813.6</ele>
        <time>2021-07-03T09:25:03Z</time>
      </trkpt>
      <trkpt lat="45.39745" lon="4.39936">
        <ele>814</ele>
        <time>2021-07-03T09:25:06Z</time>
      </trkpt>
      <trkpt lat="45.3974" lon="4.39949">
        <ele>814.8</ele>
        <time>2021-07-03T09:25:13Z</time>
      </trkpt>
      <trkpt lat="45.39738" lon="4.39951">
        <ele>815</ele>
        <time>2021-07-03T09:25:15Z</time>
      </trkpt>
      <trkpt lat="45.39733" lon="4.39969">
        <ele>816.2</ele>
        <time>2021-07-03T09:25:23Z</time>
      </trkpt>
      <trkpt lat="45.39727" lon="4.39983">
        <ele>817.2</ele>
        <time>2021-07-03T09:25:30Z</time>
      </trkpt>
      <trkpt lat="45.39725" lon="4.3999">
        <ele>817.6</ele>
        <time>2021-07-03T09:25:33Z</time>
      </trkpt>
      <trkpt lat="45.3972" lon="4.40002">
        <ele>818.4</ele>
        <time>2021-07-03T09:25:39Z</time>
      </trkpt>
      <trkpt lat="45.39717" lon="4.40011">
        <ele>818.8</ele>
        <time>2021-07-03T09:25:43Z</time>
      </trkpt>
      <trkpt lat="45.39715" lon="4.40017">
        <ele>819.4</ele>
        <time>2021-07-03T09:25:46Z</time>
      </trkpt>
      <trkpt lat="45.39711" lon="4.40029">
        <ele>820</ele>
        <time>2021-07-03T09:25:51Z</time>
      </trkpt>
      <trkpt lat="45.3971" lon="4.40034">
        <ele>820.2</ele>
        <time>2021-07-03T09:25:53Z</time>
      </trkpt>
      <trkpt lat="45.39707" lon="4.40041">
        <ele>820.4</ele>
        <time>2021-07-03T09:25:56Z</time>
      </trkpt>
      <trkpt lat="45.39701" lon="4.40056">
        <ele>821.4</ele>
        <time>2021-07-03T09:26:03Z</time>
      </trkpt>
      <trkpt lat="45.39694" lon="4.40071">
        <ele>822.6</ele>
        <time>2021-07-03T09:26:11Z</time>
      </trkpt>
      <trkpt lat="45.39692" lon="4.40075">
        <ele>822.8</ele>
        <time>2021-07-03T09:26:13Z</time>
      </trkpt>
      <trkpt lat="45.39682" lon="4.40097">
        <ele>823.6</ele>
        <time>2021-07-03T09:26:23Z</time>
      </trkpt>
      <trkpt lat="45.39677" lon="4.40106">
        <ele>824.2</ele>
        <time>2021-07-03T09:26:28Z</time>
      </trkpt>
      <trkpt lat="45.39673" lon="4.40114">
        <ele>824.6</ele>
        <time>2021-07-03T09:26:32Z</time>
      </trkpt>
      <trkpt lat="45.39672" lon="4.40115">
        <ele>824.8</ele>
        <time>2021-07-03T09:26:33Z</time>
      </trkpt>
      <trkpt lat="45.39664" lon="4.40129">
        <ele>825.8</ele>
        <time>2021-07-03T09:26:41Z</time>
      </trkpt>
      <trkpt lat="45.39661" lon="4.40134">
        <ele>826</ele>
        <time>2021-07-03T09:26:43Z</time>
      </trkpt>
      <trkpt lat="45.39655" lon="4.40147">
        <ele>826.8</ele>
        <time>2021-07-03T09:26:48Z</time>
      </trkpt>
      <trkpt lat="45.3965" lon="4.40159">
        <ele>827.6</ele>
        <time>2021-07-03T09:26:53Z</time>
      </trkpt>
      <trkpt lat="45.39644" lon="4.40171">
        <ele>827.8</ele>
        <time>2021-07-03T09:26:58Z</time>
      </trkpt>
      <trkpt lat="45.39639" lon="4.40182">
        <ele>828.4</ele>
        <time>2021-07-03T09:27:03Z</time>
      </trkpt>
      <trkpt lat="45.39634" lon="4.40188">
        <ele>829</ele>
        <time>2021-07-03T09:27:07Z</time>
      </trkpt>
      <trkpt lat="45.39627" lon="4.40198">
        <ele>829.4</ele>
        <time>2021-07-03T09:27:13Z</time>
      </trkpt>
      <trkpt lat="45.3962" lon="4.4021">
        <ele>830</ele>
        <time>2021-07-03T09:27:19Z</time>
      </trkpt>
      <trkpt lat="45.39616" lon="4.40219">
        <ele>830.4</ele>
        <time>2021-07-03T09:27:23Z</time>
      </trkpt>
      <trkpt lat="45.39615" lon="4.40223">
        <ele>830.6</ele>
        <time>2021-07-03T09:27:25Z</time>
      </trkpt>
      <trkpt lat="45.39613" lon="4.40228">
        <ele>830.8</ele>
        <time>2021-07-03T09:27:27Z</time>
      </trkpt>
      <trkpt lat="45.3961" lon="4.40234">
        <ele>831.2</ele>
        <time>2021-07-03T09:27:30Z</time>
      </trkpt>
      <trkpt lat="45.39608" lon="4.40241">
        <ele>831.4</ele>
        <time>2021-07-03T09:27:33Z</time>
      </trkpt>
      <trkpt lat="45.39604" lon="4.40248">
        <ele>832.2</ele>
        <time>2021-07-03T09:27:37Z</time>
      </trkpt>
      <trkpt lat="45.39604" lon="4.4025">
        <ele>832.4</ele>
        <time>2021-07-03T09:27:38Z</time>
      </trkpt>
      <trkpt lat="45.39602" lon="4.40253">
        <ele>832.6</ele>
        <time>2021-07-03T09:27:40Z</time>
      </trkpt>
      <trkpt lat="45.396" lon="4.40258">
        <ele>833</ele>
        <time>2021-07-03T09:27:43Z</time>
      </trkpt>
      <trkpt lat="45.39599" lon="4.4026">
        <ele>833.2</ele>
        <time>2021-07-03T09:27:44Z</time>
      </trkpt>
      <trkpt lat="45.39593" lon="4.40282">
        <ele>834.4</ele>
        <time>2021-07-03T09:27:53Z</time>
      </trkpt>
      <trkpt lat="45.39592" lon="4.40292">
        <ele>835</ele>
        <time>2021-07-03T09:27:57Z</time>
      </trkpt>
      <trkpt lat="45.39591" lon="4.403">
        <ele>835.4</ele>
        <time>2021-07-03T09:28:00Z</time>
      </trkpt>
      <trkpt lat="45.3959" lon="4.40307">
        <ele>835.6</ele>
        <time>2021-07-03T09:28:03Z</time>
      </trkpt>
      <trkpt lat="45.3959" lon="4.40314">
        <ele>835.8</ele>
        <time>2021-07-03T09:28:06Z</time>
      </trkpt>
      <trkpt lat="45.39589" lon="4.40326">
        <ele>836.4</ele>
        <time>2021-07-03T09:28:11Z</time>
      </trkpt>
      <trkpt lat="45.39589" lon="4.40332">
        <ele>836.6</ele>
        <time>2021-07-03T09:28:13Z</time>
      </trkpt>
      <trkpt lat="45.39586" lon="4.40349">
        <ele>837.4</ele>
        <time>2021-07-03T09:28:20Z</time>
      </trkpt>
      <trkpt lat="45.39586" lon="4.40351">
        <ele>837.4</ele>
        <time>2021-07-03T09:28:21Z</time>
      </trkpt>
      <trkpt lat="45.39584" lon="4.40355">
        <ele>837.8</ele>
        <time>2021-07-03T09:28:23Z</time>
      </trkpt>
      <trkpt lat="45.39579" lon="4.40364">
        <ele>838.6</ele>
        <time>2021-07-03T09:28:28Z</time>
      </trkpt>
      <trkpt lat="45.39575" lon="4.40367">
        <ele>838.8</ele>
        <time>2021-07-03T09:28:31Z</time>
      </trkpt>
      <trkpt lat="45.39572" lon="4.4037">
        <ele>839.2</ele>
        <time>2021-07-03T09:28:33Z</time>
      </trkpt>
      <trkpt lat="45.3957" lon="4.40371">
        <ele>839.6</ele>
        <time>2021-07-03T09:28:35Z</time>
      </trkpt>
      <trkpt lat="45.39561" lon="4.40372">
        <ele>840.2</ele>
        <time>2021-07-03T09:28:40Z</time>
      </trkpt>
      <trkpt lat="45.39556" lon="4.4037">
        <ele>840.6</ele>
        <time>2021-07-03T09:28:43Z</time>
      </trkpt>
      <trkpt lat="45.39551" lon="4.4037">
        <ele>841</ele>
        <time>2021-07-03T09:28:47Z</time>
      </trkpt>
      <trkpt lat="45.39548" lon="4.40367">
        <ele>841.2</ele>
        <time>2021-07-03T09:28:50Z</time>
      </trkpt>
      <trkpt lat="45.39546" lon="4.40362">
        <ele>841.8</ele>
        <time>2021-07-03T09:28:53Z</time>
      </trkpt>
      <trkpt lat="45.39545" lon="4.40353">
        <ele>842.2</ele>
        <time>2021-07-03T09:28:57Z</time>
      </trkpt>
      <trkpt lat="45.39547" lon="4.40348">
        <ele>842.8</ele>
        <time>2021-07-03T09:29:00Z</time>
      </trkpt>
      <trkpt lat="45.39548" lon="4.40341">
        <ele>843</ele>
        <time>2021-07-03T09:29:03Z</time>
      </trkpt>
      <trkpt lat="45.39548" lon="4.40338">
        <ele>843</ele>
        <time>2021-07-03T09:29:04Z</time>
      </trkpt>
      <trkpt lat="45.39549" lon="4.40326">
        <ele>843.4</ele>
        <time>2021-07-03T09:29:08Z</time>
      </trkpt>
      <trkpt lat="45.39551" lon="4.40322">
        <ele>843.4</ele>
        <time>2021-07-03T09:29:10Z</time>
      </trkpt>
      <trkpt lat="45.39553" lon="4.40315">
        <ele>843.8</ele>
        <time>2021-07-03T09:29:13Z</time>
      </trkpt>
      <trkpt lat="45.39554" lon="4.40312">
        <ele>843.8</ele>
        <time>2021-07-03T09:29:14Z</time>
      </trkpt>
      <trkpt lat="45.39554" lon="4.40307">
        <ele>844</ele>
        <time>2021-07-03T09:29:16Z</time>
      </trkpt>
      <trkpt lat="45.39555" lon="4.40299">
        <ele>844.4</ele>
        <time>2021-07-03T09:29:19Z</time>
      </trkpt>
      <trkpt lat="45.39556" lon="4.40289">
        <ele>844.8</ele>
        <time>2021-07-03T09:29:23Z</time>
      </trkpt>
      <trkpt lat="45.39555" lon="4.40285">
        <ele>845.2</ele>
        <time>2021-07-03T09:29:25Z</time>
      </trkpt>
      <trkpt lat="45.39556" lon="4.40267">
        <ele>846</ele>
        <time>2021-07-03T09:29:33Z</time>
      </trkpt>
      <trkpt lat="45.39556" lon="4.40259">
        <ele>846.2</ele>
        <time>2021-07-03T09:29:37Z</time>
      </trkpt>
      <trkpt lat="45.39556" lon="4.4025">
        <ele>846.4</ele>
        <time>2021-07-03T09:29:40Z</time>
      </trkpt>
      <trkpt lat="45.39556" lon="4.40242">
        <ele>847</ele>
        <time>2021-07-03T09:29:43Z</time>
      </trkpt>
      <trkpt lat="45.39555" lon="4.4024">
        <ele>847</ele>
        <time>2021-07-03T09:29:44Z</time>
      </trkpt>
      <trkpt lat="45.39555" lon="4.40237">
        <ele>847.2</ele>
        <time>2021-07-03T09:29:45Z</time>
      </trkpt>
      <trkpt lat="45.39554" lon="4.4023">
        <ele>847.4</ele>
        <time>2021-07-03T09:29:48Z</time>
      </trkpt>
      <trkpt lat="45.39552" lon="4.40214">
        <ele>847.8</ele>
        <time>2021-07-03T09:29:53Z</time>
      </trkpt>
      <trkpt lat="45.39552" lon="4.40202">
        <ele>848</ele>
        <time>2021-07-03T09:29:57Z</time>
      </trkpt>
      <trkpt lat="45.39551" lon="4.40199">
        <ele>848.2</ele>
        <time>2021-07-03T09:29:59Z</time>
      </trkpt>
      <trkpt lat="45.39551" lon="4.4019">
        <ele>848.6</ele>
        <time>2021-07-03T09:30:03Z</time>
      </trkpt>
      <trkpt lat="45.3955" lon="4.40185">
        <ele>848.8</ele>
        <time>2021-07-03T09:30:05Z</time>
      </trkpt>
      <trkpt lat="45.39547" lon="4.40177">
        <ele>849.2</ele>
        <time>2021-07-03T09:30:08Z</time>
      </trkpt>
      <trkpt lat="45.39544" lon="4.40171">
        <ele>849.4</ele>
        <time>2021-07-03T09:30:11Z</time>
      </trkpt>
      <trkpt lat="45.39543" lon="4.40169">
        <ele>849.6</ele>
        <time>2021-07-03T09:30:12Z</time>
      </trkpt>
      <trkpt lat="45.39542" lon="4.40167">
        <ele>849.8</ele>
        <time>2021-07-03T09:30:13Z</time>
      </trkpt>
      <trkpt lat="45.39541" lon="4.40166">
        <ele>849.8</ele>
        <time>2021-07-03T09:30:14Z</time>
      </trkpt>
      <trkpt lat="45.39538" lon="4.40162">
        <ele>850</ele>
        <time>2021-07-03T09:30:16Z</time>
      </trkpt>
      <trkpt lat="45.39534" lon="4.40153">
        <ele>850.2</ele>
        <time>2021-07-03T09:30:20Z</time>
      </trkpt>
      <trkpt lat="45.39529" lon="4.40144">
        <ele>850.6</ele>
        <time>2021-07-03T09:30:23Z</time>
      </trkpt>
      <trkpt lat="45.39517" lon="4.40132">
        <ele>851.4</ele>
        <time>2021-07-03T09:30:29Z</time>
      </trkpt>
      <trkpt lat="45.39508" lon="4.40131">
        <ele>851.6</ele>
        <time>2021-07-03T09:30:33Z</time>
      </trkpt>
      <trkpt lat="45.39501" lon="4.40133">
        <ele>851.8</ele>
        <time>2021-07-03T09:30:37Z</time>
      </trkpt>
      <trkpt lat="45.39499" lon="4.40135">
        <ele>852</ele>
        <time>2021-07-03T09:30:39Z</time>
      </trkpt>
      <trkpt lat="45.39497" lon="4.40138">
        <ele>852</ele>
        <time>2021-07-03T09:30:41Z</time>
      </trkpt>
      <trkpt lat="45.39496" lon="4.40141">
        <ele>852.4</ele>
        <time>2021-07-03T09:30:43Z</time>
      </trkpt>
      <trkpt lat="45.39494" lon="4.40143">
        <ele>852.6</ele>
        <time>2021-07-03T09:30:44Z</time>
      </trkpt>
      <trkpt lat="45.39492" lon="4.40147">
        <ele>853</ele>
        <time>2021-07-03T09:30:46Z</time>
      </trkpt>
      <trkpt lat="45.39486" lon="4.40153">
        <ele>853.6</ele>
        <time>2021-07-03T09:30:50Z</time>
      </trkpt>
      <trkpt lat="45.39482" lon="4.40157">
        <ele>854</ele>
        <time>2021-07-03T09:30:53Z</time>
      </trkpt>
      <trkpt lat="45.39478" lon="4.40164">
        <ele>854.2</ele>
        <time>2021-07-03T09:30:57Z</time>
      </trkpt>
      <trkpt lat="45.39476" lon="4.40167">
        <ele>854.6</ele>
        <time>2021-07-03T09:30:59Z</time>
      </trkpt>
      <trkpt lat="45.39475" lon="4.40168">
        <ele>854.6</ele>
        <time>2021-07-03T09:31:00Z</time>
      </trkpt>
      <trkpt lat="45.39474" lon="4.4017">
        <ele>854.6</ele>
        <time>2021-07-03T09:31:01Z</time>
      </trkpt>
      <trkpt lat="45.39471" lon="4.40174">
        <ele>854.8</ele>
        <time>2021-07-03T09:31:03Z</time>
      </trkpt>
      <trkpt lat="45.3947" lon="4.40175">
        <ele>855</ele>
        <time>2021-07-03T09:31:04Z</time>
      </trkpt>
      <trkpt lat="45.39469" lon="4.40177">
        <ele>855</ele>
        <time>2021-07-03T09:31:05Z</time>
      </trkpt>
      <trkpt lat="45.39464" lon="4.40186">
        <ele>855.4</ele>
        <time>2021-07-03T09:31:10Z</time>
      </trkpt>
      <trkpt lat="45.39462" lon="4.4019">
        <ele>855.8</ele>
        <time>2021-07-03T09:31:12Z</time>
      </trkpt>
      <trkpt lat="45.3946" lon="4.40192">
        <ele>856</ele>
        <time>2021-07-03T09:31:13Z</time>
      </trkpt>
      <trkpt lat="45.39455" lon="4.402">
        <ele>856.8</ele>
        <time>2021-07-03T09:31:18Z</time>
      </trkpt>
      <trkpt lat="45.39451" lon="4.4021">
        <ele>857.8</ele>
        <time>2021-07-03T09:31:23Z</time>
      </trkpt>
      <trkpt lat="45.39448" lon="4.40223">
        <ele>859</ele>
        <time>2021-07-03T09:31:29Z</time>
      </trkpt>
      <trkpt lat="45.39446" lon="4.40231">
        <ele>860</ele>
        <time>2021-07-03T09:31:33Z</time>
      </trkpt>
      <trkpt lat="45.39445" lon="4.40232">
        <ele>860.2</ele>
        <time>2021-07-03T09:31:34Z</time>
      </trkpt>
      <trkpt lat="45.39441" lon="4.40246">
        <ele>861.4</ele>
        <time>2021-07-03T09:31:41Z</time>
      </trkpt>
      <trkpt lat="45.3944" lon="4.4025">
        <ele>861.8</ele>
        <time>2021-07-03T09:31:43Z</time>
      </trkpt>
      <trkpt lat="45.39435" lon="4.40263">
        <ele>862.4</ele>
        <time>2021-07-03T09:31:49Z</time>
      </trkpt>
      <trkpt lat="45.39432" lon="4.40273">
        <ele>863</ele>
        <time>2021-07-03T09:31:53Z</time>
      </trkpt>
      <trkpt lat="45.39428" lon="4.40284">
        <ele>863.4</ele>
        <time>2021-07-03T09:31:58Z</time>
      </trkpt>
      <trkpt lat="45.39426" lon="4.40292">
        <ele>863.8</ele>
        <time>2021-07-03T09:32:01Z</time>
      </trkpt>
      <trkpt lat="45.39424" lon="4.40297">
        <ele>864.2</ele>
        <time>2021-07-03T09:32:03Z</time>
      </trkpt>
      <trkpt lat="45.39423" lon="4.40299">
        <ele>864.4</ele>
        <time>2021-07-03T09:32:04Z</time>
      </trkpt>
      <trkpt lat="45.39422" lon="4.40301">
        <ele>864.6</ele>
        <time>2021-07-03T09:32:05Z</time>
      </trkpt>
      <trkpt lat="45.3942" lon="4.40305">
        <ele>864.8</ele>
        <time>2021-07-03T09:32:07Z</time>
      </trkpt>
      <trkpt lat="45.39417" lon="4.4031">
        <ele>865.4</ele>
        <time>2021-07-03T09:32:10Z</time>
      </trkpt>
      <trkpt lat="45.39416" lon="4.40311">
        <ele>865.6</ele>
        <time>2021-07-03T09:32:11Z</time>
      </trkpt>
      <trkpt lat="45.39415" lon="4.40315">
        <ele>866</ele>
        <time>2021-07-03T09:32:13Z</time>
      </trkpt>
      <trkpt lat="45.39411" lon="4.40322">
        <ele>866.6</ele>
        <time>2021-07-03T09:32:17Z</time>
      </trkpt>
      <trkpt lat="45.39406" lon="4.40332">
        <ele>867.4</ele>
        <time>2021-07-03T09:32:23Z</time>
      </trkpt>
      <trkpt lat="45.39405" lon="4.40334">
        <ele>867.6</ele>
        <time>2021-07-03T09:32:24Z</time>
      </trkpt>
      <trkpt lat="45.39402" lon="4.40343">
        <ele>868.8</ele>
        <time>2021-07-03T09:32:29Z</time>
      </trkpt>
      <trkpt lat="45.39398" lon="4.4035">
        <ele>869.4</ele>
        <time>2021-07-03T09:32:33Z</time>
      </trkpt>
      <trkpt lat="45.39394" lon="4.4036">
        <ele>870</ele>
        <time>2021-07-03T09:32:38Z</time>
      </trkpt>
      <trkpt lat="45.3939" lon="4.40366">
        <ele>870.6</ele>
        <time>2021-07-03T09:32:42Z</time>
      </trkpt>
      <trkpt lat="45.39388" lon="4.40367">
        <ele>870.8</ele>
        <time>2021-07-03T09:32:43Z</time>
      </trkpt>
      <trkpt lat="45.39386" lon="4.4037">
        <ele>871</ele>
        <time>2021-07-03T09:32:45Z</time>
      </trkpt>
      <trkpt lat="45.39379" lon="4.40379">
        <ele>872.2</ele>
        <time>2021-07-03T09:32:51Z</time>
      </trkpt>
      <trkpt lat="45.39377" lon="4.40382">
        <ele>872.6</ele>
        <time>2021-07-03T09:32:53Z</time>
      </trkpt>
      <trkpt lat="45.39371" lon="4.40392">
        <ele>873.4</ele>
        <time>2021-07-03T09:32:59Z</time>
      </trkpt>
      <trkpt lat="45.39368" lon="4.40399">
        <ele>873.4</ele>
        <time>2021-07-03T09:33:02Z</time>
      </trkpt>
      <trkpt lat="45.39368" lon="4.40401">
        <ele>873.6</ele>
        <time>2021-07-03T09:33:03Z</time>
      </trkpt>
      <trkpt lat="45.39363" lon="4.40414">
        <ele>874.4</ele>
        <time>2021-07-03T09:33:09Z</time>
      </trkpt>
      <trkpt lat="45.39361" lon="4.40423">
        <ele>874.8</ele>
        <time>2021-07-03T09:33:13Z</time>
      </trkpt>
      <trkpt lat="45.39359" lon="4.4043">
        <ele>875</ele>
        <time>2021-07-03T09:33:16Z</time>
      </trkpt>
      <trkpt lat="45.39358" lon="4.40437">
        <ele>875.4</ele>
        <time>2021-07-03T09:33:19Z</time>
      </trkpt>
      <trkpt lat="45.39356" lon="4.40447">
        <ele>875.8</ele>
        <time>2021-07-03T09:33:23Z</time>
      </trkpt>
      <trkpt lat="45.39354" lon="4.40457">
        <ele>876.6</ele>
        <time>2021-07-03T09:33:27Z</time>
      </trkpt>
      <trkpt lat="45.3935" lon="4.40473">
        <ele>877.8</ele>
        <time>2021-07-03T09:33:33Z</time>
      </trkpt>
      <trkpt lat="45.39346" lon="4.40488">
        <ele>878.8</ele>
        <time>2021-07-03T09:33:40Z</time>
      </trkpt>
      <trkpt lat="45.39344" lon="4.40495">
        <ele>879.2</ele>
        <time>2021-07-03T09:33:43Z</time>
      </trkpt>
      <trkpt lat="45.39341" lon="4.40503">
        <ele>879.8</ele>
        <time>2021-07-03T09:33:47Z</time>
      </trkpt>
      <trkpt lat="45.39337" lon="4.40517">
        <ele>880.6</ele>
        <time>2021-07-03T09:33:53Z</time>
      </trkpt>
      <trkpt lat="45.39336" lon="4.40519">
        <ele>880.8</ele>
        <time>2021-07-03T09:33:54Z</time>
      </trkpt>
      <trkpt lat="45.39332" lon="4.4054">
        <ele>881.8</ele>
        <time>2021-07-03T09:34:03Z</time>
      </trkpt>
      <trkpt lat="45.39325" lon="4.40561">
        <ele>883</ele>
        <time>2021-07-03T09:34:13Z</time>
      </trkpt>
      <trkpt lat="45.39319" lon="4.40584">
        <ele>884</ele>
        <time>2021-07-03T09:34:23Z</time>
      </trkpt>
      <trkpt lat="45.39314" lon="4.40603">
        <ele>884.6</ele>
        <time>2021-07-03T09:34:33Z</time>
      </trkpt>
      <trkpt lat="45.39311" lon="4.40611">
        <ele>885</ele>
        <time>2021-07-03T09:34:37Z</time>
      </trkpt>
      <trkpt lat="45.39306" lon="4.40624">
        <ele>885.6</ele>
        <time>2021-07-03T09:34:43Z</time>
      </trkpt>
      <trkpt lat="45.393" lon="4.40648">
        <ele>885.8</ele>
        <time>2021-07-03T09:34:52Z</time>
      </trkpt>
      <trkpt lat="45.39299" lon="4.4065">
        <ele>886</ele>
        <time>2021-07-03T09:34:53Z</time>
      </trkpt>
      <trkpt lat="45.39299" lon="4.40652">
        <ele>886</ele>
        <time>2021-07-03T09:34:54Z</time>
      </trkpt>
      <trkpt lat="45.39293" lon="4.40674">
        <ele>886.6</ele>
        <time>2021-07-03T09:35:03Z</time>
      </trkpt>
      <trkpt lat="45.39289" lon="4.40696">
        <ele>887.2</ele>
        <time>2021-07-03T09:35:10Z</time>
      </trkpt>
      <trkpt lat="45.39289" lon="4.40699">
        <ele>887.4</ele>
        <time>2021-07-03T09:35:11Z</time>
      </trkpt>
      <trkpt lat="45.39288" lon="4.40701">
        <ele>887.4</ele>
        <time>2021-07-03T09:35:12Z</time>
      </trkpt>
      <trkpt lat="45.39288" lon="4.40703">
        <ele>887.6</ele>
        <time>2021-07-03T09:35:13Z</time>
      </trkpt>
      <trkpt lat="45.39287" lon="4.40708">
        <ele>887.8</ele>
        <time>2021-07-03T09:35:15Z</time>
      </trkpt>
      <trkpt lat="45.39286" lon="4.4071">
        <ele>888</ele>
        <time>2021-07-03T09:35:16Z</time>
      </trkpt>
      <trkpt lat="45.39285" lon="4.40714">
        <ele>888.2</ele>
        <time>2021-07-03T09:35:18Z</time>
      </trkpt>
      <trkpt lat="45.39283" lon="4.40726">
        <ele>888.4</ele>
        <time>2021-07-03T09:35:23Z</time>
      </trkpt>
      <trkpt lat="45.39277" lon="4.40753">
        <ele>889.2</ele>
        <time>2021-07-03T09:35:33Z</time>
      </trkpt>
      <trkpt lat="45.39277" lon="4.40755">
        <ele>889.4</ele>
        <time>2021-07-03T09:35:34Z</time>
      </trkpt>
      <trkpt lat="45.3927" lon="4.40776">
        <ele>890</ele>
        <time>2021-07-03T09:35:43Z</time>
      </trkpt>
      <trkpt lat="45.39268" lon="4.40779">
        <ele>890.4</ele>
        <time>2021-07-03T09:35:45Z</time>
      </trkpt>
      <trkpt lat="45.39264" lon="4.40788">
        <ele>890.8</ele>
        <time>2021-07-03T09:35:50Z</time>
      </trkpt>
      <trkpt lat="45.39261" lon="4.40796">
        <ele>891.2</ele>
        <time>2021-07-03T09:35:53Z</time>
      </trkpt>
      <trkpt lat="45.39259" lon="4.40801">
        <ele>891.6</ele>
        <time>2021-07-03T09:35:55Z</time>
      </trkpt>
      <trkpt lat="45.39255" lon="4.40818">
        <ele>892.4</ele>
        <time>2021-07-03T09:36:01Z</time>
      </trkpt>
      <trkpt lat="45.39254" lon="4.40823">
        <ele>892.6</ele>
        <time>2021-07-03T09:36:03Z</time>
      </trkpt>
      <trkpt lat="45.39252" lon="4.40831">
        <ele>893</ele>
        <time>2021-07-03T09:36:06Z</time>
      </trkpt>
      <trkpt lat="45.39249" lon="4.4084">
        <ele>893.6</ele>
        <time>2021-07-03T09:36:10Z</time>
      </trkpt>
      <trkpt lat="45.39246" lon="4.40847">
        <ele>893.8</ele>
        <time>2021-07-03T09:36:13Z</time>
      </trkpt>
      <trkpt lat="45.3924" lon="4.40862">
        <ele>894.6</ele>
        <time>2021-07-03T09:36:20Z</time>
      </trkpt>
      <trkpt lat="45.39239" lon="4.40865">
        <ele>894.6</ele>
        <time>2021-07-03T09:36:21Z</time>
      </trkpt>
      <trkpt lat="45.39238" lon="4.4087">
        <ele>894.8</ele>
        <time>2021-07-03T09:36:23Z</time>
      </trkpt>
      <trkpt lat="45.39236" lon="4.40874">
        <ele>895.2</ele>
        <time>2021-07-03T09:36:25Z</time>
      </trkpt>
      <trkpt lat="45.39234" lon="4.40881">
        <ele>895.8</ele>
        <time>2021-07-03T09:36:28Z</time>
      </trkpt>
      <trkpt lat="45.3923" lon="4.40887">
        <ele>896</ele>
        <time>2021-07-03T09:36:31Z</time>
      </trkpt>
      <trkpt lat="45.39227" lon="4.40893">
        <ele>896</ele>
        <time>2021-07-03T09:36:33Z</time>
      </trkpt>
      <trkpt lat="45.39218" lon="4.40915">
        <ele>896.6</ele>
        <time>2021-07-03T09:36:42Z</time>
      </trkpt>
      <trkpt lat="45.39217" lon="4.40917">
        <ele>896.8</ele>
        <time>2021-07-03T09:36:43Z</time>
      </trkpt>
      <trkpt lat="45.39216" lon="4.40918">
        <ele>896.8</ele>
        <time>2021-07-03T09:36:44Z</time>
      </trkpt>
      <trkpt lat="45.39207" lon="4.40938">
        <ele>897.4</ele>
        <time>2021-07-03T09:36:53Z</time>
      </trkpt>
      <trkpt lat="45.39202" lon="4.40952">
        <ele>898</ele>
        <time>2021-07-03T09:36:57Z</time>
      </trkpt>
      <trkpt lat="45.39195" lon="4.4097">
        <ele>898.2</ele>
        <time>2021-07-03T09:37:03Z</time>
      </trkpt>
      <trkpt lat="45.39191" lon="4.40984">
        <ele>898</ele>
        <time>2021-07-03T09:37:09Z</time>
      </trkpt>
      <trkpt lat="45.39189" lon="4.40991">
        <ele>898</ele>
        <time>2021-07-03T09:37:13Z</time>
      </trkpt>
      <trkpt lat="45.39185" lon="4.41012">
        <ele>897.2</ele>
        <time>2021-07-03T09:37:22Z</time>
      </trkpt>
      <trkpt lat="45.39185" lon="4.41016">
        <ele>897.2</ele>
        <time>2021-07-03T09:37:23Z</time>
      </trkpt>
      <trkpt lat="45.39186" lon="4.41033">
        <ele>897</ele>
        <time>2021-07-03T09:37:27Z</time>
      </trkpt>
      <trkpt lat="45.39187" lon="4.41041">
        <ele>897</ele>
        <time>2021-07-03T09:37:29Z</time>
      </trkpt>
      <trkpt lat="45.39187" lon="4.4106">
        <ele>896.8</ele>
        <time>2021-07-03T09:37:33Z</time>
      </trkpt>
      <trkpt lat="45.39184" lon="4.41071">
        <ele>896.8</ele>
        <time>2021-07-03T09:37:36Z</time>
      </trkpt>
      <trkpt lat="45.39184" lon="4.41082">
        <ele>896.8</ele>
        <time>2021-07-03T09:37:39Z</time>
      </trkpt>
      <trkpt lat="45.39184" lon="4.41094">
        <ele>897</ele>
        <time>2021-07-03T09:37:43Z</time>
      </trkpt>
      <trkpt lat="45.39186" lon="4.41118">
        <ele>896.4</ele>
        <time>2021-07-03T09:37:51Z</time>
      </trkpt>
      <trkpt lat="45.39186" lon="4.41125">
        <ele>896.2</ele>
        <time>2021-07-03T09:37:53Z</time>
      </trkpt>
      <trkpt lat="45.39187" lon="4.4114">
        <ele>896</ele>
        <time>2021-07-03T09:37:57Z</time>
      </trkpt>
      <trkpt lat="45.39187" lon="4.41159">
        <ele>895.6</ele>
        <time>2021-07-03T09:38:03Z</time>
      </trkpt>
      <trkpt lat="45.39181" lon="4.41174">
        <ele>895.2</ele>
        <time>2021-07-03T09:38:09Z</time>
      </trkpt>
      <trkpt lat="45.39179" lon="4.41174">
        <ele>895</ele>
        <time>2021-07-03T09:38:10Z</time>
      </trkpt>
      <trkpt lat="45.39168" lon="4.41158">
        <ele>892.6</ele>
        <time>2021-07-03T09:40:42Z</time>
      </trkpt>
      <trkpt lat="45.39166" lon="4.41157">
        <ele>892.4</ele>
        <time>2021-07-03T09:40:43Z</time>
      </trkpt>
      <trkpt lat="45.39163" lon="4.41151">
        <ele>892.6</ele>
        <time>2021-07-03T09:40:45Z</time>
      </trkpt>
      <trkpt lat="45.3915" lon="4.41129">
        <ele>892.2</ele>
        <time>2021-07-03T09:40:53Z</time>
      </trkpt>
      <trkpt lat="45.39149" lon="4.41127">
        <ele>892</ele>
        <time>2021-07-03T09:40:54Z</time>
      </trkpt>
      <trkpt lat="45.39148" lon="4.41124">
        <ele>892</ele>
        <time>2021-07-03T09:40:55Z</time>
      </trkpt>
      <trkpt lat="45.39145" lon="4.41114">
        <ele>891.4</ele>
        <time>2021-07-03T09:40:59Z</time>
      </trkpt>
      <trkpt lat="45.39144" lon="4.41111">
        <ele>891.4</ele>
        <time>2021-07-03T09:41:00Z</time>
      </trkpt>
      <trkpt lat="45.39143" lon="4.41108">
        <ele>891.4</ele>
        <time>2021-07-03T09:41:01Z</time>
      </trkpt>
      <trkpt lat="45.39142" lon="4.41101">
        <ele>891.4</ele>
        <time>2021-07-03T09:41:03Z</time>
      </trkpt>
      <trkpt lat="45.39138" lon="4.41093">
        <ele>891</ele>
        <time>2021-07-03T09:41:07Z</time>
      </trkpt>
      <trkpt lat="45.39137" lon="4.41091">
        <ele>891</ele>
        <time>2021-07-03T09:41:08Z</time>
      </trkpt>
      <trkpt lat="45.39135" lon="4.41084">
        <ele>891</ele>
        <time>2021-07-03T09:41:10Z</time>
      </trkpt>
      <trkpt lat="45.39134" lon="4.4108">
        <ele>890.8</ele>
        <time>2021-07-03T09:41:11Z</time>
      </trkpt>
      <trkpt lat="45.39133" lon="4.41078">
        <ele>890.8</ele>
        <time>2021-07-03T09:41:12Z</time>
      </trkpt>
      <trkpt lat="45.39132" lon="4.41075">
        <ele>891</ele>
        <time>2021-07-03T09:41:13Z</time>
      </trkpt>
      <trkpt lat="45.3913" lon="4.41072">
        <ele>891</ele>
        <time>2021-07-03T09:41:14Z</time>
      </trkpt>
      <trkpt lat="45.39123" lon="4.41046">
        <ele>890.8</ele>
        <time>2021-07-03T09:41:21Z</time>
      </trkpt>
      <trkpt lat="45.3912" lon="4.4104">
        <ele>890.8</ele>
        <time>2021-07-03T09:41:23Z</time>
      </trkpt>
      <trkpt lat="45.39117" lon="4.41032">
        <ele>890.4</ele>
        <time>2021-07-03T09:41:25Z</time>
      </trkpt>
      <trkpt lat="45.39115" lon="4.41029">
        <ele>890.4</ele>
        <time>2021-07-03T09:41:26Z</time>
      </trkpt>
      <trkpt lat="45.39113" lon="4.41022">
        <ele>890.2</ele>
        <time>2021-07-03T09:41:28Z</time>
      </trkpt>
      <trkpt lat="45.39112" lon="4.4102">
        <ele>890.2</ele>
        <time>2021-07-03T09:41:29Z</time>
      </trkpt>
      <trkpt lat="45.3911" lon="4.41016">
        <ele>890</ele>
        <time>2021-07-03T09:41:31Z</time>
      </trkpt>
      <trkpt lat="45.39108" lon="4.41011">
        <ele>889.6</ele>
        <time>2021-07-03T09:41:33Z</time>
      </trkpt>
      <trkpt lat="45.39107" lon="4.41009">
        <ele>889.4</ele>
        <time>2021-07-03T09:41:34Z</time>
      </trkpt>
      <trkpt lat="45.39097" lon="4.40986">
        <ele>888.8</ele>
        <time>2021-07-03T09:41:42Z</time>
      </trkpt>
      <trkpt lat="45.39095" lon="4.40982">
        <ele>888.6</ele>
        <time>2021-07-03T09:41:43Z</time>
      </trkpt>
      <trkpt lat="45.39092" lon="4.40977">
        <ele>888.6</ele>
        <time>2021-07-03T09:41:45Z</time>
      </trkpt>
      <trkpt lat="45.3909" lon="4.40971">
        <ele>888.2</ele>
        <time>2021-07-03T09:41:47Z</time>
      </trkpt>
      <trkpt lat="45.39088" lon="4.40968">
        <ele>888.2</ele>
        <time>2021-07-03T09:41:48Z</time>
      </trkpt>
      <trkpt lat="45.39084" lon="4.4096">
        <ele>888</ele>
        <time>2021-07-03T09:41:51Z</time>
      </trkpt>
      <trkpt lat="45.39082" lon="4.40953">
        <ele>888</ele>
        <time>2021-07-03T09:41:53Z</time>
      </trkpt>
      <trkpt lat="45.3907" lon="4.40933">
        <ele>887.4</ele>
        <time>2021-07-03T09:42:00Z</time>
      </trkpt>
      <trkpt lat="45.39065" lon="4.40924">
        <ele>887.2</ele>
        <time>2021-07-03T09:42:03Z</time>
      </trkpt>
      <trkpt lat="45.3906" lon="4.40913">
        <ele>886.6</ele>
        <time>2021-07-03T09:42:06Z</time>
      </trkpt>
      <trkpt lat="45.39049" lon="4.40895">
        <ele>886.2</ele>
        <time>2021-07-03T09:42:12Z</time>
      </trkpt>
      <trkpt lat="45.39047" lon="4.40892">
        <ele>886.2</ele>
        <time>2021-07-03T09:42:13Z</time>
      </trkpt>
      <trkpt lat="45.39046" lon="4.40889">
        <ele>886.2</ele>
        <time>2021-07-03T09:42:14Z</time>
      </trkpt>
      <trkpt lat="45.39044" lon="4.40887">
        <ele>886</ele>
        <time>2021-07-03T09:42:15Z</time>
      </trkpt>
      <trkpt lat="45.39042" lon="4.40884">
        <ele>886</ele>
        <time>2021-07-03T09:42:16Z</time>
      </trkpt>
      <trkpt lat="45.3904" lon="4.40881">
        <ele>885.8</ele>
        <time>2021-07-03T09:42:17Z</time>
      </trkpt>
      <trkpt lat="45.39039" lon="4.40879">
        <ele>885.8</ele>
        <time>2021-07-03T09:42:18Z</time>
      </trkpt>
      <trkpt lat="45.39037" lon="4.40876">
        <ele>885.8</ele>
        <time>2021-07-03T09:42:19Z</time>
      </trkpt>
      <trkpt lat="45.39035" lon="4.40874">
        <ele>885.8</ele>
        <time>2021-07-03T09:42:20Z</time>
      </trkpt>
      <trkpt lat="45.39032" lon="4.40867">
        <ele>885.6</ele>
        <time>2021-07-03T09:42:22Z</time>
      </trkpt>
      <trkpt lat="45.3903" lon="4.40865">
        <ele>885.6</ele>
        <time>2021-07-03T09:42:23Z</time>
      </trkpt>
      <trkpt lat="45.39023" lon="4.40853">
        <ele>885</ele>
        <time>2021-07-03T09:42:27Z</time>
      </trkpt>
      <trkpt lat="45.39014" lon="4.40837">
        <ele>884.6</ele>
        <time>2021-07-03T09:42:33Z</time>
      </trkpt>
      <trkpt lat="45.39004" lon="4.40817">
        <ele>884.2</ele>
        <time>2021-07-03T09:42:40Z</time>
      </trkpt>
      <trkpt lat="45.39001" lon="4.40811">
        <ele>884</ele>
        <time>2021-07-03T09:42:42Z</time>
      </trkpt>
      <trkpt lat="45.39" lon="4.40808">
        <ele>883.8</ele>
        <time>2021-07-03T09:42:43Z</time>
      </trkpt>
      <trkpt lat="45.38995" lon="4.40795">
        <ele>883.6</ele>
        <time>2021-07-03T09:42:48Z</time>
      </trkpt>
      <trkpt lat="45.3899" lon="4.40785">
        <ele>882.8</ele>
        <time>2021-07-03T09:42:52Z</time>
      </trkpt>
      <trkpt lat="45.38989" lon="4.40782">
        <ele>882.8</ele>
        <time>2021-07-03T09:42:53Z</time>
      </trkpt>
      <trkpt lat="45.38984" lon="4.40754">
        <ele>881.8</ele>
        <time>2021-07-03T09:43:02Z</time>
      </trkpt>
      <trkpt lat="45.38984" lon="4.40752">
        <ele>881.8</ele>
        <time>2021-07-03T09:43:03Z</time>
      </trkpt>
      <trkpt lat="45.3898" lon="4.40729">
        <ele>881.4</ele>
        <time>2021-07-03T09:43:11Z</time>
      </trkpt>
      <trkpt lat="45.38979" lon="4.40722">
        <ele>881.2</ele>
        <time>2021-07-03T09:43:13Z</time>
      </trkpt>
      <trkpt lat="45.38978" lon="4.40712">
        <ele>880.8</ele>
        <time>2021-07-03T09:43:16Z</time>
      </trkpt>
      <trkpt lat="45.38976" lon="4.40687">
        <ele>880.4</ele>
        <time>2021-07-03T09:43:23Z</time>
      </trkpt>
      <trkpt lat="45.38979" lon="4.40666">
        <ele>880.2</ele>
        <time>2021-07-03T09:43:29Z</time>
      </trkpt>
      <trkpt lat="45.3898" lon="4.4066">
        <ele>880</ele>
        <time>2021-07-03T09:43:31Z</time>
      </trkpt>
      <trkpt lat="45.38983" lon="4.40655">
        <ele>879.8</ele>
        <time>2021-07-03T09:43:33Z</time>
      </trkpt>
      <trkpt lat="45.38984" lon="4.40653">
        <ele>879.8</ele>
        <time>2021-07-03T09:43:34Z</time>
      </trkpt>
      <trkpt lat="45.38988" lon="4.40641">
        <ele>879.2</ele>
        <time>2021-07-03T09:43:38Z</time>
      </trkpt>
      <trkpt lat="45.38995" lon="4.40627">
        <ele>879</ele>
        <time>2021-07-03T09:43:43Z</time>
      </trkpt>
      <trkpt lat="45.38998" lon="4.40622">
        <ele>878.6</ele>
        <time>2021-07-03T09:43:45Z</time>
      </trkpt>
      <trkpt lat="45.39006" lon="4.40597">
        <ele>877.8</ele>
        <time>2021-07-03T09:43:52Z</time>
      </trkpt>
      <trkpt lat="45.39007" lon="4.40593">
        <ele>877.4</ele>
        <time>2021-07-03T09:43:53Z</time>
      </trkpt>
      <trkpt lat="45.39017" lon="4.40572">
        <ele>877</ele>
        <time>2021-07-03T09:44:00Z</time>
      </trkpt>
      <trkpt lat="45.3902" lon="4.40566">
        <ele>876.8</ele>
        <time>2021-07-03T09:44:02Z</time>
      </trkpt>
      <trkpt lat="45.39021" lon="4.40562">
        <ele>876.8</ele>
        <time>2021-07-03T09:44:03Z</time>
      </trkpt>
      <trkpt lat="45.39023" lon="4.40555">
        <ele>876.2</ele>
        <time>2021-07-03T09:44:05Z</time>
      </trkpt>
      <trkpt lat="45.39027" lon="4.40545">
        <ele>875.6</ele>
        <time>2021-07-03T09:44:08Z</time>
      </trkpt>
      <trkpt lat="45.39031" lon="4.40535">
        <ele>875.2</ele>
        <time>2021-07-03T09:44:11Z</time>
      </trkpt>
      <trkpt lat="45.39034" lon="4.40529">
        <ele>874.8</ele>
        <time>2021-07-03T09:44:13Z</time>
      </trkpt>
      <trkpt lat="45.39046" lon="4.40515">
        <ele>874.2</ele>
        <time>2021-07-03T09:44:19Z</time>
      </trkpt>
      <trkpt lat="45.39051" lon="4.40508">
        <ele>873.8</ele>
        <time>2021-07-03T09:44:22Z</time>
      </trkpt>
      <trkpt lat="45.39053" lon="4.40506">
        <ele>874</ele>
        <time>2021-07-03T09:44:23Z</time>
      </trkpt>
      <trkpt lat="45.39065" lon="4.40492">
        <ele>873.4</ele>
        <time>2021-07-03T09:44:29Z</time>
      </trkpt>
      <trkpt lat="45.39072" lon="4.40484">
        <ele>873.2</ele>
        <time>2021-07-03T09:44:32Z</time>
      </trkpt>
      <trkpt lat="45.39073" lon="4.40482">
        <ele>872.8</ele>
        <time>2021-07-03T09:44:33Z</time>
      </trkpt>
      <trkpt lat="45.39086" lon="4.40464">
        <ele>872</ele>
        <time>2021-07-03T09:44:39Z</time>
      </trkpt>
      <trkpt lat="45.39095" lon="4.40452">
        <ele>871.6</ele>
        <time>2021-07-03T09:44:43Z</time>
      </trkpt>
      <trkpt lat="45.39101" lon="4.4044">
        <ele>871</ele>
        <time>2021-07-03T09:44:47Z</time>
      </trkpt>
      <trkpt lat="45.39104" lon="4.40432">
        <ele>870.6</ele>
        <time>2021-07-03T09:44:50Z</time>
      </trkpt>
      <trkpt lat="45.39109" lon="4.40423">
        <ele>870.4</ele>
        <time>2021-07-03T09:44:53Z</time>
      </trkpt>
      <trkpt lat="45.39112" lon="4.40415">
        <ele>870</ele>
        <time>2021-07-03T09:44:56Z</time>
      </trkpt>
      <trkpt lat="45.3912" lon="4.40397">
        <ele>869.4</ele>
        <time>2021-07-03T09:45:03Z</time>
      </trkpt>
      <trkpt lat="45.39128" lon="4.4038">
        <ele>868.8</ele>
        <time>2021-07-03T09:45:09Z</time>
      </trkpt>
      <trkpt lat="45.39133" lon="4.40368">
        <ele>868.4</ele>
        <time>2021-07-03T09:45:13Z</time>
      </trkpt>
      <trkpt lat="45.39134" lon="4.40365">
        <ele>868.2</ele>
        <time>2021-07-03T09:45:14Z</time>
      </trkpt>
      <trkpt lat="45.3914" lon="4.40354">
        <ele>867.8</ele>
        <time>2021-07-03T09:45:18Z</time>
      </trkpt>
      <trkpt lat="45.39145" lon="4.40339">
        <ele>867.6</ele>
        <time>2021-07-03T09:45:23Z</time>
      </trkpt>
      <trkpt lat="45.39155" lon="4.40316">
        <ele>867</ele>
        <time>2021-07-03T09:45:31Z</time>
      </trkpt>
      <trkpt lat="45.39156" lon="4.40311">
        <ele>866.8</ele>
        <time>2021-07-03T09:45:33Z</time>
      </trkpt>
      <trkpt lat="45.39168" lon="4.40291">
        <ele>866</ele>
        <time>2021-07-03T09:45:41Z</time>
      </trkpt>
      <trkpt lat="45.39171" lon="4.40289">
        <ele>865.8</ele>
        <time>2021-07-03T09:45:42Z</time>
      </trkpt>
      <trkpt lat="45.39172" lon="4.40287">
        <ele>865.6</ele>
        <time>2021-07-03T09:45:43Z</time>
      </trkpt>
      <trkpt lat="45.39185" lon="4.40265">
        <ele>864.8</ele>
        <time>2021-07-03T09:45:52Z</time>
      </trkpt>
      <trkpt lat="45.39187" lon="4.40262">
        <ele>864.8</ele>
        <time>2021-07-03T09:45:53Z</time>
      </trkpt>
      <trkpt lat="45.39199" lon="4.40242">
        <ele>863.8</ele>
        <time>2021-07-03T09:46:01Z</time>
      </trkpt>
      <trkpt lat="45.39203" lon="4.40237">
        <ele>863.6</ele>
        <time>2021-07-03T09:46:03Z</time>
      </trkpt>
      <trkpt lat="45.39212" lon="4.40227">
        <ele>863.4</ele>
        <time>2021-07-03T09:46:08Z</time>
      </trkpt>
      <trkpt lat="45.39216" lon="4.40223">
        <ele>863.2</ele>
        <time>2021-07-03T09:46:10Z</time>
      </trkpt>
      <trkpt lat="45.39221" lon="4.40217">
        <ele>862.8</ele>
        <time>2021-07-03T09:46:13Z</time>
      </trkpt>
      <trkpt lat="45.39225" lon="4.40213">
        <ele>862.6</ele>
        <time>2021-07-03T09:46:15Z</time>
      </trkpt>
      <trkpt lat="45.39232" lon="4.40209">
        <ele>862.2</ele>
        <time>2021-07-03T09:46:18Z</time>
      </trkpt>
      <trkpt lat="45.39234" lon="4.40207">
        <ele>862.2</ele>
        <time>2021-07-03T09:46:19Z</time>
      </trkpt>
      <trkpt lat="45.39237" lon="4.40205">
        <ele>862.2</ele>
        <time>2021-07-03T09:46:20Z</time>
      </trkpt>
      <trkpt lat="45.39239" lon="4.40204">
        <ele>862.2</ele>
        <time>2021-07-03T09:46:21Z</time>
      </trkpt>
      <trkpt lat="45.39243" lon="4.40203">
        <ele>862</ele>
        <time>2021-07-03T09:46:23Z</time>
      </trkpt>
      <trkpt lat="45.39247" lon="4.40202">
        <ele>861.6</ele>
        <time>2021-07-03T09:46:26Z</time>
      </trkpt>
      <trkpt lat="45.39252" lon="4.40201">
        <ele>861.6</ele>
        <time>2021-07-03T09:46:28Z</time>
      </trkpt>
      <trkpt lat="45.3926" lon="4.40201">
        <ele>861.2</ele>
        <time>2021-07-03T09:46:33Z</time>
      </trkpt>
      <trkpt lat="45.39278" lon="4.40196">
        <ele>860.8</ele>
        <time>2021-07-03T09:46:39Z</time>
      </trkpt>
      <trkpt lat="45.39286" lon="4.40194">
        <ele>860.6</ele>
        <time>2021-07-03T09:46:42Z</time>
      </trkpt>
      <trkpt lat="45.39289" lon="4.40193">
        <ele>860.4</ele>
        <time>2021-07-03T09:46:43Z</time>
      </trkpt>
      <trkpt lat="45.39306" lon="4.40188">
        <ele>859.4</ele>
        <time>2021-07-03T09:46:51Z</time>
      </trkpt>
      <trkpt lat="45.3931" lon="4.40186">
        <ele>859.2</ele>
        <time>2021-07-03T09:46:53Z</time>
      </trkpt>
      <trkpt lat="45.39329" lon="4.4018">
        <ele>858.6</ele>
        <time>2021-07-03T09:47:01Z</time>
      </trkpt>
      <trkpt lat="45.39333" lon="4.40178">
        <ele>858.2</ele>
        <time>2021-07-03T09:47:03Z</time>
      </trkpt>
      <trkpt lat="45.39352" lon="4.4017">
        <ele>857.8</ele>
        <time>2021-07-03T09:47:11Z</time>
      </trkpt>
      <trkpt lat="45.39356" lon="4.40168">
        <ele>857.6</ele>
        <time>2021-07-03T09:47:13Z</time>
      </trkpt>
      <trkpt lat="45.39372" lon="4.40162">
        <ele>857.2</ele>
        <time>2021-07-03T09:47:19Z</time>
      </trkpt>
      <trkpt lat="45.39382" lon="4.40159">
        <ele>856.8</ele>
        <time>2021-07-03T09:47:23Z</time>
      </trkpt>
      <trkpt lat="45.39388" lon="4.40157">
        <ele>856.8</ele>
        <time>2021-07-03T09:47:26Z</time>
      </trkpt>
      <trkpt lat="45.39395" lon="4.40155">
        <ele>856.6</ele>
        <time>2021-07-03T09:47:29Z</time>
      </trkpt>
      <trkpt lat="45.39403" lon="4.40153">
        <ele>856.4</ele>
        <time>2021-07-03T09:47:33Z</time>
      </trkpt>
      <trkpt lat="45.3941" lon="4.4015">
        <ele>856.2</ele>
        <time>2021-07-03T09:47:37Z</time>
      </trkpt>
      <trkpt lat="45.39418" lon="4.40147">
        <ele>855.8</ele>
        <time>2021-07-03T09:47:41Z</time>
      </trkpt>
      <trkpt lat="45.39423" lon="4.40146">
        <ele>855.8</ele>
        <time>2021-07-03T09:47:43Z</time>
      </trkpt>
      <trkpt lat="45.3944" lon="4.40143">
        <ele>855.4</ele>
        <time>2021-07-03T09:47:53Z</time>
      </trkpt>
      <trkpt lat="45.39458" lon="4.40138">
        <ele>855.2</ele>
        <time>2021-07-03T09:47:58Z</time>
      </trkpt>
      <trkpt lat="45.39462" lon="4.40137">
        <ele>855</ele>
        <time>2021-07-03T09:47:59Z</time>
      </trkpt>
      <trkpt lat="45.39471" lon="4.40132">
        <ele>855</ele>
        <time>2021-07-03T09:48:03Z</time>
      </trkpt>
      <trkpt lat="45.39484" lon="4.40125">
        <ele>854.8</ele>
        <time>2021-07-03T09:48:09Z</time>
      </trkpt>
      <trkpt lat="45.39494" lon="4.40119">
        <ele>854.8</ele>
        <time>2021-07-03T09:48:13Z</time>
      </trkpt>
      <trkpt lat="45.39509" lon="4.40103">
        <ele>854.8</ele>
        <time>2021-07-03T09:48:22Z</time>
      </trkpt>
      <trkpt lat="45.3951" lon="4.401">
        <ele>854.8</ele>
        <time>2021-07-03T09:48:23Z</time>
      </trkpt>
      <trkpt lat="45.39514" lon="4.4009">
        <ele>854.8</ele>
        <time>2021-07-03T09:48:27Z</time>
      </trkpt>
      <trkpt lat="45.39518" lon="4.40066">
        <ele>855.4</ele>
        <time>2021-07-03T09:48:33Z</time>
      </trkpt>
      <trkpt lat="45.39523" lon="4.40039">
        <ele>855.8</ele>
        <time>2021-07-03T09:48:42Z</time>
      </trkpt>
      <trkpt lat="45.39523" lon="4.40036">
        <ele>855.8</ele>
        <time>2021-07-03T09:48:43Z</time>
      </trkpt>
      <trkpt lat="45.39526" lon="4.40027">
        <ele>856.2</ele>
        <time>2021-07-03T09:48:46Z</time>
      </trkpt>
      <trkpt lat="45.3953" lon="4.40004">
        <ele>856.2</ele>
        <time>2021-07-03T09:48:53Z</time>
      </trkpt>
      <trkpt lat="45.39535" lon="4.39979">
        <ele>856.8</ele>
        <time>2021-07-03T09:49:00Z</time>
      </trkpt>
      <trkpt lat="45.39537" lon="4.39969">
        <ele>856.4</ele>
        <time>2021-07-03T09:49:03Z</time>
      </trkpt>
      <trkpt lat="45.39542" lon="4.39941">
        <ele>856.2</ele>
        <time>2021-07-03T09:49:11Z</time>
      </trkpt>
      <trkpt lat="45.39543" lon="4.39938">
        <ele>856.2</ele>
        <time>2021-07-03T09:49:12Z</time>
      </trkpt>
      <trkpt lat="45.39543" lon="4.39936">
        <ele>856.2</ele>
        <time>2021-07-03T09:49:13Z</time>
      </trkpt>
      <trkpt lat="45.39551" lon="4.39912">
        <ele>856</ele>
        <time>2021-07-03T09:49:21Z</time>
      </trkpt>
      <trkpt lat="45.39553" lon="4.39905">
        <ele>855.8</ele>
        <time>2021-07-03T09:49:23Z</time>
      </trkpt>
      <trkpt lat="45.39556" lon="4.39895">
        <ele>855.4</ele>
        <time>2021-07-03T09:49:26Z</time>
      </trkpt>
      <trkpt lat="45.39558" lon="4.39885">
        <ele>855</ele>
        <time>2021-07-03T09:49:29Z</time>
      </trkpt>
      <trkpt lat="45.39563" lon="4.39871">
        <ele>854.6</ele>
        <time>2021-07-03T09:49:33Z</time>
      </trkpt>
      <trkpt lat="45.39568" lon="4.39858">
        <ele>854.2</ele>
        <time>2021-07-03T09:49:37Z</time>
      </trkpt>
      <trkpt lat="45.39572" lon="4.3985">
        <ele>853.8</ele>
        <time>2021-07-03T09:49:40Z</time>
      </trkpt>
      <trkpt lat="45.39575" lon="4.39844">
        <ele>853.6</ele>
        <time>2021-07-03T09:49:42Z</time>
      </trkpt>
      <trkpt lat="45.39576" lon="4.39842">
        <ele>853.4</ele>
        <time>2021-07-03T09:49:43Z</time>
      </trkpt>
      <trkpt lat="45.39587" lon="4.39818">
        <ele>853.4</ele>
        <time>2021-07-03T09:49:52Z</time>
      </trkpt>
      <trkpt lat="45.39588" lon="4.39815">
        <ele>853.4</ele>
        <time>2021-07-03T09:49:53Z</time>
      </trkpt>
      <trkpt lat="45.39592" lon="4.39807">
        <ele>853.4</ele>
        <time>2021-07-03T09:49:56Z</time>
      </trkpt>
      <trkpt lat="45.39594" lon="4.39802">
        <ele>853.6</ele>
        <time>2021-07-03T09:49:58Z</time>
      </trkpt>
      <trkpt lat="45.39601" lon="4.39791">
        <ele>853.6</ele>
        <time>2021-07-03T09:50:03Z</time>
      </trkpt>
      <trkpt lat="45.39609" lon="4.39777">
        <ele>853.6</ele>
        <time>2021-07-03T09:50:08Z</time>
      </trkpt>
      <trkpt lat="45.39615" lon="4.39761">
        <ele>853.6</ele>
        <time>2021-07-03T09:50:13Z</time>
      </trkpt>
      <trkpt lat="45.39625" lon="4.39736">
        <ele>854.2</ele>
        <time>2021-07-03T09:50:21Z</time>
      </trkpt>
      <trkpt lat="45.39628" lon="4.39731">
        <ele>854.4</ele>
        <time>2021-07-03T09:50:23Z</time>
      </trkpt>
      <trkpt lat="45.39644" lon="4.39714">
        <ele>854</ele>
        <time>2021-07-03T09:50:32Z</time>
      </trkpt>
      <trkpt lat="45.39646" lon="4.39712">
        <ele>853.8</ele>
        <time>2021-07-03T09:50:33Z</time>
      </trkpt>
      <trkpt lat="45.39661" lon="4.39701">
        <ele>852.6</ele>
        <time>2021-07-03T09:50:40Z</time>
      </trkpt>
      <trkpt lat="45.39666" lon="4.39696">
        <ele>852.2</ele>
        <time>2021-07-03T09:50:43Z</time>
      </trkpt>
      <trkpt lat="45.39671" lon="4.3969">
        <ele>851.6</ele>
        <time>2021-07-03T09:50:46Z</time>
      </trkpt>
      <trkpt lat="45.39681" lon="4.39676">
        <ele>850.4</ele>
        <time>2021-07-03T09:50:52Z</time>
      </trkpt>
      <trkpt lat="45.39682" lon="4.39674">
        <ele>850.4</ele>
        <time>2021-07-03T09:50:53Z</time>
      </trkpt>
      <trkpt lat="45.39692" lon="4.39659">
        <ele>849.4</ele>
        <time>2021-07-03T09:50:59Z</time>
      </trkpt>
      <trkpt lat="45.39698" lon="4.39648">
        <ele>848.6</ele>
        <time>2021-07-03T09:51:03Z</time>
      </trkpt>
      <trkpt lat="45.397" lon="4.39645">
        <ele>848.4</ele>
        <time>2021-07-03T09:51:04Z</time>
      </trkpt>
      <trkpt lat="45.39711" lon="4.39624">
        <ele>847.4</ele>
        <time>2021-07-03T09:51:12Z</time>
      </trkpt>
      <trkpt lat="45.39712" lon="4.39621">
        <ele>847.4</ele>
        <time>2021-07-03T09:51:13Z</time>
      </trkpt>
      <trkpt lat="45.3972" lon="4.39597">
        <ele>846.4</ele>
        <time>2021-07-03T09:51:21Z</time>
      </trkpt>
      <trkpt lat="45.3972" lon="4.39594">
        <ele>846.4</ele>
        <time>2021-07-03T09:51:22Z</time>
      </trkpt>
      <trkpt lat="45.39721" lon="4.39591">
        <ele>846.2</ele>
        <time>2021-07-03T09:51:23Z</time>
      </trkpt>
      <trkpt lat="45.39723" lon="4.39565">
        <ele>846</ele>
        <time>2021-07-03T09:51:31Z</time>
      </trkpt>
      <trkpt lat="45.39722" lon="4.39558">
        <ele>846</ele>
        <time>2021-07-03T09:51:33Z</time>
      </trkpt>
      <trkpt lat="45.39722" lon="4.39541">
        <ele>846</ele>
        <time>2021-07-03T09:51:38Z</time>
      </trkpt>
      <trkpt lat="45.39726" lon="4.39526">
        <ele>845.6</ele>
        <time>2021-07-03T09:51:43Z</time>
      </trkpt>
      <trkpt lat="45.3973" lon="4.39521">
        <ele>845.2</ele>
        <time>2021-07-03T09:51:45Z</time>
      </trkpt>
      <trkpt lat="45.39738" lon="4.3951">
        <ele>844</ele>
        <time>2021-07-03T09:51:50Z</time>
      </trkpt>
      <trkpt lat="45.39741" lon="4.39502">
        <ele>843.4</ele>
        <time>2021-07-03T09:51:53Z</time>
      </trkpt>
      <trkpt lat="45.39744" lon="4.39496">
        <ele>843</ele>
        <time>2021-07-03T09:51:55Z</time>
      </trkpt>
      <trkpt lat="45.39748" lon="4.39482">
        <ele>841.8</ele>
        <time>2021-07-03T09:52:00Z</time>
      </trkpt>
      <trkpt lat="45.3975" lon="4.39475">
        <ele>841.2</ele>
        <time>2021-07-03T09:52:03Z</time>
      </trkpt>
      <trkpt lat="45.39751" lon="4.39468">
        <ele>840.6</ele>
        <time>2021-07-03T09:52:05Z</time>
      </trkpt>
      <trkpt lat="45.39753" lon="4.39457">
        <ele>839.6</ele>
        <time>2021-07-03T09:52:09Z</time>
      </trkpt>
      <trkpt lat="45.39756" lon="4.39445">
        <ele>838.6</ele>
        <time>2021-07-03T09:52:13Z</time>
      </trkpt>
      <trkpt lat="45.39757" lon="4.39443">
        <ele>838.4</ele>
        <time>2021-07-03T09:52:14Z</time>
      </trkpt>
      <trkpt lat="45.39761" lon="4.39429">
        <ele>837.4</ele>
        <time>2021-07-03T09:52:19Z</time>
      </trkpt>
      <trkpt lat="45.39764" lon="4.39418">
        <ele>836.2</ele>
        <time>2021-07-03T09:52:23Z</time>
      </trkpt>
      <trkpt lat="45.39767" lon="4.3941">
        <ele>835.2</ele>
        <time>2021-07-03T09:52:26Z</time>
      </trkpt>
      <trkpt lat="45.39768" lon="4.39407">
        <ele>835</ele>
        <time>2021-07-03T09:52:27Z</time>
      </trkpt>
      <trkpt lat="45.39772" lon="4.39395">
        <ele>834</ele>
        <time>2021-07-03T09:52:31Z</time>
      </trkpt>
      <trkpt lat="45.39774" lon="4.3939">
        <ele>833.4</ele>
        <time>2021-07-03T09:52:33Z</time>
      </trkpt>
      <trkpt lat="45.39776" lon="4.39385">
        <ele>832.8</ele>
        <time>2021-07-03T09:52:35Z</time>
      </trkpt>
      <trkpt lat="45.39779" lon="4.39372">
        <ele>831.8</ele>
        <time>2021-07-03T09:52:41Z</time>
      </trkpt>
      <trkpt lat="45.39781" lon="4.39367">
        <ele>831.2</ele>
        <time>2021-07-03T09:52:43Z</time>
      </trkpt>
      <trkpt lat="45.39783" lon="4.39357">
        <ele>830.6</ele>
        <time>2021-07-03T09:52:46Z</time>
      </trkpt>
      <trkpt lat="45.39792" lon="4.3934">
        <ele>829.8</ele>
        <time>2021-07-03T09:52:51Z</time>
      </trkpt>
      <trkpt lat="45.39793" lon="4.39337">
        <ele>829.6</ele>
        <time>2021-07-03T09:52:52Z</time>
      </trkpt>
      <trkpt lat="45.39794" lon="4.39334">
        <ele>829.4</ele>
        <time>2021-07-03T09:52:53Z</time>
      </trkpt>
      <trkpt lat="45.398" lon="4.39307">
        <ele>828.4</ele>
        <time>2021-07-03T09:53:00Z</time>
      </trkpt>
      <trkpt lat="45.39803" lon="4.39299">
        <ele>827.4</ele>
        <time>2021-07-03T09:53:03Z</time>
      </trkpt>
      <trkpt lat="45.39809" lon="4.39288">
        <ele>826.4</ele>
        <time>2021-07-03T09:53:07Z</time>
      </trkpt>
      <trkpt lat="45.39815" lon="4.39276">
        <ele>825.4</ele>
        <time>2021-07-03T09:53:12Z</time>
      </trkpt>
      <trkpt lat="45.39816" lon="4.39273">
        <ele>825</ele>
        <time>2021-07-03T09:53:13Z</time>
      </trkpt>
      <trkpt lat="45.39821" lon="4.39267">
        <ele>824.2</ele>
        <time>2021-07-03T09:53:16Z</time>
      </trkpt>
      <trkpt lat="45.39827" lon="4.39255">
        <ele>822.8</ele>
        <time>2021-07-03T09:53:21Z</time>
      </trkpt>
      <trkpt lat="45.39829" lon="4.39251">
        <ele>822.4</ele>
        <time>2021-07-03T09:53:23Z</time>
      </trkpt>
      <trkpt lat="45.39833" lon="4.39244">
        <ele>821.6</ele>
        <time>2021-07-03T09:53:26Z</time>
      </trkpt>
      <trkpt lat="45.39836" lon="4.39233">
        <ele>820.6</ele>
        <time>2021-07-03T09:53:30Z</time>
      </trkpt>
      <trkpt lat="45.39839" lon="4.39225">
        <ele>819.4</ele>
        <time>2021-07-03T09:53:33Z</time>
      </trkpt>
      <trkpt lat="45.39844" lon="4.39215">
        <ele>818.4</ele>
        <time>2021-07-03T09:53:37Z</time>
      </trkpt>
      <trkpt lat="45.39846" lon="4.39207">
        <ele>817.2</ele>
        <time>2021-07-03T09:53:40Z</time>
      </trkpt>
      <trkpt lat="45.39847" lon="4.39205">
        <ele>817</ele>
        <time>2021-07-03T09:53:41Z</time>
      </trkpt>
      <trkpt lat="45.39849" lon="4.39201">
        <ele>816.6</ele>
        <time>2021-07-03T09:53:43Z</time>
      </trkpt>
      <trkpt lat="45.39852" lon="4.39197">
        <ele>816.2</ele>
        <time>2021-07-03T09:53:45Z</time>
      </trkpt>
      <trkpt lat="45.39858" lon="4.39187">
        <ele>815</ele>
        <time>2021-07-03T09:53:50Z</time>
      </trkpt>
      <trkpt lat="45.39862" lon="4.3918">
        <ele>814.4</ele>
        <time>2021-07-03T09:53:53Z</time>
      </trkpt>
      <trkpt lat="45.39866" lon="4.39172">
        <ele>814</ele>
        <time>2021-07-03T09:53:56Z</time>
      </trkpt>
      <trkpt lat="45.39871" lon="4.3916">
        <ele>812.6</ele>
        <time>2021-07-03T09:54:00Z</time>
      </trkpt>
      <trkpt lat="45.39875" lon="4.3915">
        <ele>811.8</ele>
        <time>2021-07-03T09:54:03Z</time>
      </trkpt>
      <trkpt lat="45.39876" lon="4.39148">
        <ele>811.6</ele>
        <time>2021-07-03T09:54:04Z</time>
      </trkpt>
      <trkpt lat="45.39884" lon="4.39132">
        <ele>810.4</ele>
        <time>2021-07-03T09:54:10Z</time>
      </trkpt>
      <trkpt lat="45.39885" lon="4.39129">
        <ele>810</ele>
        <time>2021-07-03T09:54:11Z</time>
      </trkpt>
      <trkpt lat="45.39887" lon="4.39122">
        <ele>809.6</ele>
        <time>2021-07-03T09:54:13Z</time>
      </trkpt>
      <trkpt lat="45.39888" lon="4.39118">
        <ele>809.4</ele>
        <time>2021-07-03T09:54:14Z</time>
      </trkpt>
      <trkpt lat="45.39888" lon="4.39104">
        <ele>808.6</ele>
        <time>2021-07-03T09:54:18Z</time>
      </trkpt>
      <trkpt lat="45.39886" lon="4.39098">
        <ele>808.2</ele>
        <time>2021-07-03T09:54:20Z</time>
      </trkpt>
      <trkpt lat="45.39886" lon="4.39087">
        <ele>807.6</ele>
        <time>2021-07-03T09:54:23Z</time>
      </trkpt>
      <trkpt lat="45.39886" lon="4.39079">
        <ele>807.2</ele>
        <time>2021-07-03T09:54:25Z</time>
      </trkpt>
      <trkpt lat="45.39887" lon="4.39065">
        <ele>806.2</ele>
        <time>2021-07-03T09:54:29Z</time>
      </trkpt>
      <trkpt lat="45.39888" lon="4.3905">
        <ele>805.2</ele>
        <time>2021-07-03T09:54:33Z</time>
      </trkpt>
      <trkpt lat="45.39888" lon="4.39047">
        <ele>805</ele>
        <time>2021-07-03T09:54:34Z</time>
      </trkpt>
      <trkpt lat="45.39887" lon="4.39027">
        <ele>803.8</ele>
        <time>2021-07-03T09:54:39Z</time>
      </trkpt>
      <trkpt lat="45.39886" lon="4.39016">
        <ele>803.2</ele>
        <time>2021-07-03T09:54:43Z</time>
      </trkpt>
      <trkpt lat="45.39886" lon="4.39013">
        <ele>802.8</ele>
        <time>2021-07-03T09:54:44Z</time>
      </trkpt>
      <trkpt lat="45.39887" lon="4.39005">
        <ele>802</ele>
        <time>2021-07-03T09:54:47Z</time>
      </trkpt>
      <trkpt lat="45.39888" lon="4.39002">
        <ele>801.8</ele>
        <time>2021-07-03T09:54:48Z</time>
      </trkpt>
      <trkpt lat="45.39887" lon="4.38988">
        <ele>800.8</ele>
        <time>2021-07-03T09:54:53Z</time>
      </trkpt>
      <trkpt lat="45.39889" lon="4.38983">
        <ele>800.4</ele>
        <time>2021-07-03T09:54:55Z</time>
      </trkpt>
      <trkpt lat="45.3989" lon="4.3898">
        <ele>800.2</ele>
        <time>2021-07-03T09:54:56Z</time>
      </trkpt>
      <trkpt lat="45.39892" lon="4.38966">
        <ele>799.4</ele>
        <time>2021-07-03T09:55:00Z</time>
      </trkpt>
      <trkpt lat="45.39894" lon="4.38959">
        <ele>798.8</ele>
        <time>2021-07-03T09:55:03Z</time>
      </trkpt>
      <trkpt lat="45.39899" lon="4.38951">
        <ele>798.2</ele>
        <time>2021-07-03T09:55:07Z</time>
      </trkpt>
      <trkpt lat="45.39904" lon="4.3894">
        <ele>797</ele>
        <time>2021-07-03T09:55:12Z</time>
      </trkpt>
      <trkpt lat="45.39905" lon="4.38938">
        <ele>796.8</ele>
        <time>2021-07-03T09:55:13Z</time>
      </trkpt>
      <trkpt lat="45.39909" lon="4.38927">
        <ele>796</ele>
        <time>2021-07-03T09:55:17Z</time>
      </trkpt>
      <trkpt lat="45.39914" lon="4.38915">
        <ele>794.8</ele>
        <time>2021-07-03T09:55:22Z</time>
      </trkpt>
      <trkpt lat="45.39915" lon="4.38911">
        <ele>794.6</ele>
        <time>2021-07-03T09:55:23Z</time>
      </trkpt>
      <trkpt lat="45.39916" lon="4.38898">
        <ele>793.8</ele>
        <time>2021-07-03T09:55:27Z</time>
      </trkpt>
      <trkpt lat="45.39915" lon="4.3888">
        <ele>792.8</ele>
        <time>2021-07-03T09:55:31Z</time>
      </trkpt>
      <trkpt lat="45.39916" lon="4.38871">
        <ele>792.2</ele>
        <time>2021-07-03T09:55:33Z</time>
      </trkpt>
      <trkpt lat="45.39916" lon="4.3886">
        <ele>791.6</ele>
        <time>2021-07-03T09:55:35Z</time>
      </trkpt>
      <trkpt lat="45.39922" lon="4.38843">
        <ele>790.6</ele>
        <time>2021-07-03T09:55:39Z</time>
      </trkpt>
      <trkpt lat="45.39923" lon="4.38838">
        <ele>790.2</ele>
        <time>2021-07-03T09:55:40Z</time>
      </trkpt>
      <trkpt lat="45.39928" lon="4.38833">
        <ele>789.4</ele>
        <time>2021-07-03T09:55:42Z</time>
      </trkpt>
      <trkpt lat="45.3993" lon="4.38832">
        <ele>789</ele>
        <time>2021-07-03T09:55:43Z</time>
      </trkpt>
      <trkpt lat="45.39934" lon="4.38831">
        <ele>788.2</ele>
        <time>2021-07-03T09:55:45Z</time>
      </trkpt>
      <trkpt lat="45.39944" lon="4.3883">
        <ele>787</ele>
        <time>2021-07-03T09:55:50Z</time>
      </trkpt>
      <trkpt lat="45.3995" lon="4.38832">
        <ele>786</ele>
        <time>2021-07-03T09:55:53Z</time>
      </trkpt>
      <trkpt lat="45.39956" lon="4.38833">
        <ele>784.8</ele>
        <time>2021-07-03T09:55:56Z</time>
      </trkpt>
      <trkpt lat="45.39961" lon="4.38834">
        <ele>783.8</ele>
        <time>2021-07-03T09:55:59Z</time>
      </trkpt>
      <trkpt lat="45.39969" lon="4.38835">
        <ele>782.4</ele>
        <time>2021-07-03T09:56:03Z</time>
      </trkpt>
      <trkpt lat="45.39975" lon="4.38837">
        <ele>781.4</ele>
        <time>2021-07-03T09:56:06Z</time>
      </trkpt>
      <trkpt lat="45.39981" lon="4.38838">
        <ele>780.4</ele>
        <time>2021-07-03T09:56:09Z</time>
      </trkpt>
      <trkpt lat="45.39987" lon="4.38839">
        <ele>779.2</ele>
        <time>2021-07-03T09:56:12Z</time>
      </trkpt>
      <trkpt lat="45.39989" lon="4.38838">
        <ele>778.8</ele>
        <time>2021-07-03T09:56:13Z</time>
      </trkpt>
      <trkpt lat="45.39994" lon="4.38838">
        <ele>778.2</ele>
        <time>2021-07-03T09:56:15Z</time>
      </trkpt>
      <trkpt lat="45.40005" lon="4.38837">
        <ele>777</ele>
        <time>2021-07-03T09:56:19Z</time>
      </trkpt>
      <trkpt lat="45.40011" lon="4.38838">
        <ele>775.6</ele>
        <time>2021-07-03T09:56:22Z</time>
      </trkpt>
      <trkpt lat="45.40013" lon="4.38838">
        <ele>775.2</ele>
        <time>2021-07-03T09:56:23Z</time>
      </trkpt>
      <trkpt lat="45.40017" lon="4.38838">
        <ele>774.4</ele>
        <time>2021-07-03T09:56:25Z</time>
      </trkpt>
      <trkpt lat="45.40023" lon="4.38836">
        <ele>773.2</ele>
        <time>2021-07-03T09:56:28Z</time>
      </trkpt>
      <trkpt lat="45.40027" lon="4.38835">
        <ele>772.4</ele>
        <time>2021-07-03T09:56:30Z</time>
      </trkpt>
      <trkpt lat="45.40029" lon="4.38834">
        <ele>772</ele>
        <time>2021-07-03T09:56:31Z</time>
      </trkpt>
      <trkpt lat="45.40033" lon="4.38832">
        <ele>771.4</ele>
        <time>2021-07-03T09:56:33Z</time>
      </trkpt>
      <trkpt lat="45.40036" lon="4.3883">
        <ele>770.8</ele>
        <time>2021-07-03T09:56:35Z</time>
      </trkpt>
      <trkpt lat="45.40041" lon="4.38825">
        <ele>769.4</ele>
        <time>2021-07-03T09:56:39Z</time>
      </trkpt>
      <trkpt lat="45.40044" lon="4.38821">
        <ele>768.2</ele>
        <time>2021-07-03T09:56:42Z</time>
      </trkpt>
      <trkpt lat="45.40045" lon="4.38819">
        <ele>768</ele>
        <time>2021-07-03T09:56:43Z</time>
      </trkpt>
      <trkpt lat="45.40051" lon="4.3881">
        <ele>766.8</ele>
        <time>2021-07-03T09:56:47Z</time>
      </trkpt>
      <trkpt lat="45.40054" lon="4.38805">
        <ele>765.8</ele>
        <time>2021-07-03T09:56:49Z</time>
      </trkpt>
      <trkpt lat="45.40055" lon="4.38803">
        <ele>765.4</ele>
        <time>2021-07-03T09:56:50Z</time>
      </trkpt>
      <trkpt lat="45.40059" lon="4.38798">
        <ele>764.6</ele>
        <time>2021-07-03T09:56:53Z</time>
      </trkpt>
      <trkpt lat="45.4006" lon="4.38796">
        <ele>764.2</ele>
        <time>2021-07-03T09:56:54Z</time>
      </trkpt>
      <trkpt lat="45.40063" lon="4.3879">
        <ele>763.2</ele>
        <time>2021-07-03T09:56:57Z</time>
      </trkpt>
      <trkpt lat="45.40066" lon="4.38783">
        <ele>762</ele>
        <time>2021-07-03T09:57:00Z</time>
      </trkpt>
      <trkpt lat="45.40071" lon="4.38775">
        <ele>761.4</ele>
        <time>2021-07-03T09:57:03Z</time>
      </trkpt>
      <trkpt lat="45.40072" lon="4.38773">
        <ele>761.2</ele>
        <time>2021-07-03T09:57:04Z</time>
      </trkpt>
      <trkpt lat="45.40074" lon="4.3877">
        <ele>761</ele>
        <time>2021-07-03T09:57:05Z</time>
      </trkpt>
      <trkpt lat="45.40077" lon="4.38762">
        <ele>760</ele>
        <time>2021-07-03T09:57:08Z</time>
      </trkpt>
      <trkpt lat="45.40079" lon="4.38754">
        <ele>758.4</ele>
        <time>2021-07-03T09:57:11Z</time>
      </trkpt>
      <trkpt lat="45.4008" lon="4.38751">
        <ele>758</ele>
        <time>2021-07-03T09:57:12Z</time>
      </trkpt>
      <trkpt lat="45.40082" lon="4.38749">
        <ele>757.6</ele>
        <time>2021-07-03T09:57:13Z</time>
      </trkpt>
      <trkpt lat="45.40083" lon="4.38746">
        <ele>757.4</ele>
        <time>2021-07-03T09:57:14Z</time>
      </trkpt>
      <trkpt lat="45.40085" lon="4.38739">
        <ele>756.2</ele>
        <time>2021-07-03T09:57:17Z</time>
      </trkpt>
      <trkpt lat="45.4009" lon="4.38733">
        <ele>755</ele>
        <time>2021-07-03T09:57:20Z</time>
      </trkpt>
      <trkpt lat="45.40094" lon="4.38728">
        <ele>754.4</ele>
        <time>2021-07-03T09:57:22Z</time>
      </trkpt>
      <trkpt lat="45.40095" lon="4.38726">
        <ele>754.2</ele>
        <time>2021-07-03T09:57:23Z</time>
      </trkpt>
      <trkpt lat="45.40097" lon="4.38723">
        <ele>754</ele>
        <time>2021-07-03T09:57:24Z</time>
      </trkpt>
      <trkpt lat="45.40102" lon="4.38706">
        <ele>752.8</ele>
        <time>2021-07-03T09:57:30Z</time>
      </trkpt>
      <trkpt lat="45.40104" lon="4.38696">
        <ele>752.2</ele>
        <time>2021-07-03T09:57:33Z</time>
      </trkpt>
      <trkpt lat="45.40106" lon="4.3869">
        <ele>751.6</ele>
        <time>2021-07-03T09:57:35Z</time>
      </trkpt>
      <trkpt lat="45.40107" lon="4.38677">
        <ele>750.4</ele>
        <time>2021-07-03T09:57:39Z</time>
      </trkpt>
      <trkpt lat="45.40108" lon="4.38655">
        <ele>749.4</ele>
        <time>2021-07-03T09:57:43Z</time>
      </trkpt>
      <trkpt lat="45.40109" lon="4.38639">
        <ele>748.2</ele>
        <time>2021-07-03T09:57:47Z</time>
      </trkpt>
      <trkpt lat="45.40111" lon="4.3862">
        <ele>747</ele>
        <time>2021-07-03T09:57:52Z</time>
      </trkpt>
      <trkpt lat="45.40111" lon="4.38615">
        <ele>746.8</ele>
        <time>2021-07-03T09:57:53Z</time>
      </trkpt>
      <trkpt lat="45.40111" lon="4.38592">
        <ele>745.8</ele>
        <time>2021-07-03T09:57:58Z</time>
      </trkpt>
      <trkpt lat="45.4011" lon="4.38578">
        <ele>744.8</ele>
        <time>2021-07-03T09:58:01Z</time>
      </trkpt>
      <trkpt lat="45.4011" lon="4.3857">
        <ele>744.4</ele>
        <time>2021-07-03T09:58:03Z</time>
      </trkpt>
      <trkpt lat="45.40107" lon="4.3855">
        <ele>743.6</ele>
        <time>2021-07-03T09:58:08Z</time>
      </trkpt>
      <trkpt lat="45.40105" lon="4.3853">
        <ele>742.4</ele>
        <time>2021-07-03T09:58:13Z</time>
      </trkpt>
      <trkpt lat="45.40101" lon="4.38512">
        <ele>741.4</ele>
        <time>2021-07-03T09:58:18Z</time>
      </trkpt>
      <trkpt lat="45.40101" lon="4.385">
        <ele>740</ele>
        <time>2021-07-03T09:58:22Z</time>
      </trkpt>
      <trkpt lat="45.401" lon="4.38496">
        <ele>739.6</ele>
        <time>2021-07-03T09:58:23Z</time>
      </trkpt>
      <trkpt lat="45.401" lon="4.38487">
        <ele>738.8</ele>
        <time>2021-07-03T09:58:26Z</time>
      </trkpt>
      <trkpt lat="45.40101" lon="4.38478">
        <ele>737.6</ele>
        <time>2021-07-03T09:58:30Z</time>
      </trkpt>
      <trkpt lat="45.40102" lon="4.38472">
        <ele>736.4</ele>
        <time>2021-07-03T09:58:33Z</time>
      </trkpt>
      <trkpt lat="45.40104" lon="4.3846">
        <ele>735.4</ele>
        <time>2021-07-03T09:58:38Z</time>
      </trkpt>
      <trkpt lat="45.40106" lon="4.3845">
        <ele>734.4</ele>
        <time>2021-07-03T09:58:42Z</time>
      </trkpt>
      <trkpt lat="45.40107" lon="4.38447">
        <ele>734</ele>
        <time>2021-07-03T09:58:43Z</time>
      </trkpt>
      <trkpt lat="45.40108" lon="4.38441">
        <ele>733.2</ele>
        <time>2021-07-03T09:58:45Z</time>
      </trkpt>
      <trkpt lat="45.40108" lon="4.3843">
        <ele>732.2</ele>
        <time>2021-07-03T09:58:48Z</time>
      </trkpt>
      <trkpt lat="45.40109" lon="4.38416">
        <ele>731</ele>
        <time>2021-07-03T09:58:52Z</time>
      </trkpt>
      <trkpt lat="45.40108" lon="4.38413">
        <ele>730.8</ele>
        <time>2021-07-03T09:58:53Z</time>
      </trkpt>
      <trkpt lat="45.40108" lon="4.38403">
        <ele>730</ele>
        <time>2021-07-03T09:58:56Z</time>
      </trkpt>
      <trkpt lat="45.40108" lon="4.38392">
        <ele>728.8</ele>
        <time>2021-07-03T09:58:59Z</time>
      </trkpt>
      <trkpt lat="45.40111" lon="4.3838">
        <ele>727.6</ele>
        <time>2021-07-03T09:59:03Z</time>
      </trkpt>
      <trkpt lat="45.40111" lon="4.3837">
        <ele>726.6</ele>
        <time>2021-07-03T09:59:06Z</time>
      </trkpt>
      <trkpt lat="45.40112" lon="4.3836">
        <ele>725.2</ele>
        <time>2021-07-03T09:59:09Z</time>
      </trkpt>
      <trkpt lat="45.40114" lon="4.38348">
        <ele>724</ele>
        <time>2021-07-03T09:59:12Z</time>
      </trkpt>
      <trkpt lat="45.40115" lon="4.38345">
        <ele>723.4</ele>
        <time>2021-07-03T09:59:13Z</time>
      </trkpt>
      <trkpt lat="45.40115" lon="4.38341">
        <ele>723</ele>
        <time>2021-07-03T09:59:14Z</time>
      </trkpt>
      <trkpt lat="45.40119" lon="4.38332">
        <ele>721.8</ele>
        <time>2021-07-03T09:59:17Z</time>
      </trkpt>
      <trkpt lat="45.40123" lon="4.38323">
        <ele>720.6</ele>
        <time>2021-07-03T09:59:20Z</time>
      </trkpt>
      <trkpt lat="45.40125" lon="4.38314">
        <ele>719.8</ele>
        <time>2021-07-03T09:59:23Z</time>
      </trkpt>
      <trkpt lat="45.40126" lon="4.38311">
        <ele>719.4</ele>
        <time>2021-07-03T09:59:24Z</time>
      </trkpt>
      <trkpt lat="45.40131" lon="4.38297">
        <ele>718.2</ele>
        <time>2021-07-03T09:59:28Z</time>
      </trkpt>
      <trkpt lat="45.40135" lon="4.38287">
        <ele>718.2</ele>
        <time>2021-07-03T09:59:31Z</time>
      </trkpt>
      <trkpt lat="45.40137" lon="4.38281">
        <ele>718</ele>
        <time>2021-07-03T09:59:33Z</time>
      </trkpt>
      <trkpt lat="45.40138" lon="4.38272">
        <ele>717.6</ele>
        <time>2021-07-03T09:59:36Z</time>
      </trkpt>
      <trkpt lat="45.4014" lon="4.38266">
        <ele>717.2</ele>
        <time>2021-07-03T09:59:38Z</time>
      </trkpt>
      <trkpt lat="45.40142" lon="4.38254">
        <ele>716.8</ele>
        <time>2021-07-03T09:59:42Z</time>
      </trkpt>
      <trkpt lat="45.40142" lon="4.3825">
        <ele>716.6</ele>
        <time>2021-07-03T09:59:43Z</time>
      </trkpt>
      <trkpt lat="45.40142" lon="4.38233">
        <ele>716.2</ele>
        <time>2021-07-03T09:59:47Z</time>
      </trkpt>
      <trkpt lat="45.40142" lon="4.38221">
        <ele>715.8</ele>
        <time>2021-07-03T09:59:50Z</time>
      </trkpt>
      <trkpt lat="45.40141" lon="4.38209">
        <ele>715.4</ele>
        <time>2021-07-03T09:59:53Z</time>
      </trkpt>
      <trkpt lat="45.40141" lon="4.38193">
        <ele>715.2</ele>
        <time>2021-07-03T09:59:57Z</time>
      </trkpt>
      <trkpt lat="45.40141" lon="4.38172">
        <ele>714.2</ele>
        <time>2021-07-03T10:00:03Z</time>
      </trkpt>
      <trkpt lat="45.40141" lon="4.38169">
        <ele>714</ele>
        <time>2021-07-03T10:00:04Z</time>
      </trkpt>
      <trkpt lat="45.40142" lon="4.38146">
        <ele>713</ele>
        <time>2021-07-03T10:00:12Z</time>
      </trkpt>
      <trkpt lat="45.40142" lon="4.38142">
        <ele>712.8</ele>
        <time>2021-07-03T10:00:13Z</time>
      </trkpt>
      <trkpt lat="45.40144" lon="4.38122">
        <ele>711.8</ele>
        <time>2021-07-03T10:00:20Z</time>
      </trkpt>
      <trkpt lat="45.40145" lon="4.38113">
        <ele>711.6</ele>
        <time>2021-07-03T10:00:23Z</time>
      </trkpt>
      <trkpt lat="45.40144" lon="4.38088">
        <ele>710.8</ele>
        <time>2021-07-03T10:00:30Z</time>
      </trkpt>
      <trkpt lat="45.40145" lon="4.38078">
        <ele>710.4</ele>
        <time>2021-07-03T10:00:33Z</time>
      </trkpt>
      <trkpt lat="45.40145" lon="4.38067">
        <ele>709.8</ele>
        <time>2021-07-03T10:00:36Z</time>
      </trkpt>
      <trkpt lat="45.40146" lon="4.3806">
        <ele>709.4</ele>
        <time>2021-07-03T10:00:38Z</time>
      </trkpt>
      <trkpt lat="45.40147" lon="4.38056">
        <ele>709.4</ele>
        <time>2021-07-03T10:00:39Z</time>
      </trkpt>
      <trkpt lat="45.40149" lon="4.38046">
        <ele>709</ele>
        <time>2021-07-03T10:00:42Z</time>
      </trkpt>
      <trkpt lat="45.40149" lon="4.38046">
        <ele>708.8</ele>
        <time>2021-07-03T10:00:43Z</time>
      </trkpt>
      <trkpt lat="45.40152" lon="4.38035">
        <ele>708.6</ele>
        <time>2021-07-03T10:00:46Z</time>
      </trkpt>
      <trkpt lat="45.4016" lon="4.38023">
        <ele>708.2</ele>
        <time>2021-07-03T10:00:51Z</time>
      </trkpt>
      <trkpt lat="45.40164" lon="4.3802">
        <ele>708</ele>
        <time>2021-07-03T10:00:53Z</time>
      </trkpt>
      <trkpt lat="45.40165" lon="4.38019">
        <ele>707.8</ele>
        <time>2021-07-03T10:00:54Z</time>
      </trkpt>
      <trkpt lat="45.40167" lon="4.38018">
        <ele>707.6</ele>
        <time>2021-07-03T10:00:55Z</time>
      </trkpt>
      <trkpt lat="45.40168" lon="4.38017">
        <ele>707.4</ele>
        <time>2021-07-03T10:00:56Z</time>
      </trkpt>
      <trkpt lat="45.40172" lon="4.38015">
        <ele>707</ele>
        <time>2021-07-03T10:00:58Z</time>
      </trkpt>
      <trkpt lat="45.40175" lon="4.38014">
        <ele>707</ele>
        <time>2021-07-03T10:00:59Z</time>
      </trkpt>
      <trkpt lat="45.40186" lon="4.38017">
        <ele>706.4</ele>
        <time>2021-07-03T10:01:03Z</time>
      </trkpt>
      <trkpt lat="45.40188" lon="4.38019">
        <ele>706.4</ele>
        <time>2021-07-03T10:01:04Z</time>
      </trkpt>
      <trkpt lat="45.40196" lon="4.38029">
        <ele>705.2</ele>
        <time>2021-07-03T10:01:09Z</time>
      </trkpt>
      <trkpt lat="45.402" lon="4.38034">
        <ele>705.2</ele>
        <time>2021-07-03T10:01:11Z</time>
      </trkpt>
      <trkpt lat="45.40203" lon="4.38041">
        <ele>705.2</ele>
        <time>2021-07-03T10:01:13Z</time>
      </trkpt>
      <trkpt lat="45.40208" lon="4.3805">
        <ele>704.8</ele>
        <time>2021-07-03T10:01:16Z</time>
      </trkpt>
      <trkpt lat="45.40213" lon="4.38059">
        <ele>704.2</ele>
        <time>2021-07-03T10:01:19Z</time>
      </trkpt>
      <trkpt lat="45.40215" lon="4.38066">
        <ele>703.8</ele>
        <time>2021-07-03T10:01:21Z</time>
      </trkpt>
      <trkpt lat="45.40218" lon="4.38074">
        <ele>703.4</ele>
        <time>2021-07-03T10:01:23Z</time>
      </trkpt>
      <trkpt lat="45.40219" lon="4.38077">
        <ele>703.2</ele>
        <time>2021-07-03T10:01:24Z</time>
      </trkpt>
      <trkpt lat="45.40221" lon="4.38085">
        <ele>702.8</ele>
        <time>2021-07-03T10:01:26Z</time>
      </trkpt>
      <trkpt lat="45.40225" lon="4.38105">
        <ele>702.2</ele>
        <time>2021-07-03T10:01:32Z</time>
      </trkpt>
      <trkpt lat="45.40225" lon="4.38108">
        <ele>701.8</ele>
        <time>2021-07-03T10:01:33Z</time>
      </trkpt>
      <trkpt lat="45.40225" lon="4.38131">
        <ele>701</ele>
        <time>2021-07-03T10:01:40Z</time>
      </trkpt>
      <trkpt lat="45.40226" lon="4.38141">
        <ele>700.6</ele>
        <time>2021-07-03T10:01:43Z</time>
      </trkpt>
      <trkpt lat="45.40226" lon="4.38158">
        <ele>700.4</ele>
        <time>2021-07-03T10:01:48Z</time>
      </trkpt>
      <trkpt lat="45.40227" lon="4.38168">
        <ele>700</ele>
        <time>2021-07-03T10:01:51Z</time>
      </trkpt>
      <trkpt lat="45.40228" lon="4.38174">
        <ele>699.6</ele>
        <time>2021-07-03T10:01:53Z</time>
      </trkpt>
      <trkpt lat="45.40236" lon="4.38193">
        <ele>698.6</ele>
        <time>2021-07-03T10:01:59Z</time>
      </trkpt>
      <trkpt lat="45.40246" lon="4.38195">
        <ele>697.6</ele>
        <time>2021-07-03T10:02:03Z</time>
      </trkpt>
      <trkpt lat="45.40256" lon="4.38187">
        <ele>696.2</ele>
        <time>2021-07-03T10:02:08Z</time>
      </trkpt>
      <trkpt lat="45.40261" lon="4.38178">
        <ele>695.2</ele>
        <time>2021-07-03T10:02:11Z</time>
      </trkpt>
      <trkpt lat="45.40263" lon="4.38171">
        <ele>694.8</ele>
        <time>2021-07-03T10:02:13Z</time>
      </trkpt>
      <trkpt lat="45.40264" lon="4.38161">
        <ele>694</ele>
        <time>2021-07-03T10:02:16Z</time>
      </trkpt>
      <trkpt lat="45.40264" lon="4.38146">
        <ele>693.6</ele>
        <time>2021-07-03T10:02:21Z</time>
      </trkpt>
      <trkpt lat="45.40264" lon="4.3814">
        <ele>693.4</ele>
        <time>2021-07-03T10:02:23Z</time>
      </trkpt>
      <trkpt lat="45.40263" lon="4.38128">
        <ele>693</ele>
        <time>2021-07-03T10:02:27Z</time>
      </trkpt>
      <trkpt lat="45.40261" lon="4.38109">
        <ele>692.4</ele>
        <time>2021-07-03T10:02:33Z</time>
      </trkpt>
      <trkpt lat="45.40259" lon="4.38096">
        <ele>691.8</ele>
        <time>2021-07-03T10:02:37Z</time>
      </trkpt>
      <trkpt lat="45.40257" lon="4.38078">
        <ele>691</ele>
        <time>2021-07-03T10:02:43Z</time>
      </trkpt>
      <trkpt lat="45.40256" lon="4.38071">
        <ele>690.6</ele>
        <time>2021-07-03T10:02:45Z</time>
      </trkpt>
      <trkpt lat="45.40254" lon="4.38049">
        <ele>689.4</ele>
        <time>2021-07-03T10:02:52Z</time>
      </trkpt>
      <trkpt lat="45.40254" lon="4.38046">
        <ele>689.2</ele>
        <time>2021-07-03T10:02:53Z</time>
      </trkpt>
      <trkpt lat="45.40251" lon="4.38029">
        <ele>688.2</ele>
        <time>2021-07-03T10:02:58Z</time>
      </trkpt>
      <trkpt lat="45.40251" lon="4.38013">
        <ele>687.6</ele>
        <time>2021-07-03T10:03:03Z</time>
      </trkpt>
      <trkpt lat="45.40251" lon="4.38004">
        <ele>687.2</ele>
        <time>2021-07-03T10:03:06Z</time>
      </trkpt>
      <trkpt lat="45.40252" lon="4.37981">
        <ele>686.6</ele>
        <time>2021-07-03T10:03:13Z</time>
      </trkpt>
      <trkpt lat="45.40252" lon="4.37972">
        <ele>686</ele>
        <time>2021-07-03T10:03:16Z</time>
      </trkpt>
      <trkpt lat="45.40251" lon="4.37964">
        <ele>685.4</ele>
        <time>2021-07-03T10:03:18Z</time>
      </trkpt>
      <trkpt lat="45.4025" lon="4.3795">
        <ele>685</ele>
        <time>2021-07-03T10:03:22Z</time>
      </trkpt>
      <trkpt lat="45.4025" lon="4.37947">
        <ele>684.8</ele>
        <time>2021-07-03T10:03:23Z</time>
      </trkpt>
      <trkpt lat="45.40249" lon="4.37934">
        <ele>683.8</ele>
        <time>2021-07-03T10:03:27Z</time>
      </trkpt>
      <trkpt lat="45.40249" lon="4.37926">
        <ele>683.4</ele>
        <time>2021-07-03T10:03:29Z</time>
      </trkpt>
      <trkpt lat="45.40249" lon="4.37915">
        <ele>682.8</ele>
        <time>2021-07-03T10:03:32Z</time>
      </trkpt>
      <trkpt lat="45.40249" lon="4.37911">
        <ele>682.6</ele>
        <time>2021-07-03T10:03:33Z</time>
      </trkpt>
      <trkpt lat="45.40247" lon="4.37883">
        <ele>681.6</ele>
        <time>2021-07-03T10:03:40Z</time>
      </trkpt>
      <trkpt lat="45.40246" lon="4.37871">
        <ele>681</ele>
        <time>2021-07-03T10:03:43Z</time>
      </trkpt>
      <trkpt lat="45.40244" lon="4.37863">
        <ele>680.8</ele>
        <time>2021-07-03T10:03:45Z</time>
      </trkpt>
      <trkpt lat="45.40243" lon="4.37856">
        <ele>680.6</ele>
        <time>2021-07-03T10:03:47Z</time>
      </trkpt>
      <trkpt lat="45.40236" lon="4.37837">
        <ele>679.4</ele>
        <time>2021-07-03T10:03:53Z</time>
      </trkpt>
      <trkpt lat="45.4023" lon="4.37822">
        <ele>678.2</ele>
        <time>2021-07-03T10:03:58Z</time>
      </trkpt>
      <trkpt lat="45.40223" lon="4.37807">
        <ele>677.6</ele>
        <time>2021-07-03T10:04:03Z</time>
      </trkpt>
      <trkpt lat="45.40217" lon="4.37791">
        <ele>677.2</ele>
        <time>2021-07-03T10:04:08Z</time>
      </trkpt>
      <trkpt lat="45.4021" lon="4.37776">
        <ele>676</ele>
        <time>2021-07-03T10:04:13Z</time>
      </trkpt>
      <trkpt lat="45.40205" lon="4.37768">
        <ele>675.6</ele>
        <time>2021-07-03T10:04:16Z</time>
      </trkpt>
      <trkpt lat="45.40202" lon="4.37759">
        <ele>675</ele>
        <time>2021-07-03T10:04:19Z</time>
      </trkpt>
      <trkpt lat="45.40198" lon="4.37745">
        <ele>674</ele>
        <time>2021-07-03T10:04:23Z</time>
      </trkpt>
      <trkpt lat="45.40197" lon="4.37742">
        <ele>674</ele>
        <time>2021-07-03T10:04:24Z</time>
      </trkpt>
      <trkpt lat="45.40189" lon="4.3772">
        <ele>672.8</ele>
        <time>2021-07-03T10:04:31Z</time>
      </trkpt>
      <trkpt lat="45.40187" lon="4.37715">
        <ele>672.4</ele>
        <time>2021-07-03T10:04:33Z</time>
      </trkpt>
      <trkpt lat="45.40184" lon="4.37702">
        <ele>671.8</ele>
        <time>2021-07-03T10:04:37Z</time>
      </trkpt>
      <trkpt lat="45.40177" lon="4.37682">
        <ele>670.6</ele>
        <time>2021-07-03T10:04:43Z</time>
      </trkpt>
      <trkpt lat="45.4017" lon="4.37663">
        <ele>669.4</ele>
        <time>2021-07-03T10:04:49Z</time>
      </trkpt>
      <trkpt lat="45.40165" lon="4.37651">
        <ele>668.8</ele>
        <time>2021-07-03T10:04:53Z</time>
      </trkpt>
      <trkpt lat="45.40162" lon="4.37646">
        <ele>668.2</ele>
        <time>2021-07-03T10:04:55Z</time>
      </trkpt>
      <trkpt lat="45.40148" lon="4.37629">
        <ele>667.2</ele>
        <time>2021-07-03T10:05:03Z</time>
      </trkpt>
      <trkpt lat="45.40146" lon="4.37628">
        <ele>667</ele>
        <time>2021-07-03T10:05:04Z</time>
      </trkpt>
      <trkpt lat="45.40132" lon="4.37625">
        <ele>666</ele>
        <time>2021-07-03T10:05:10Z</time>
      </trkpt>
      <trkpt lat="45.40125" lon="4.37625">
        <ele>665.2</ele>
        <time>2021-07-03T10:05:13Z</time>
      </trkpt>
      <trkpt lat="45.40121" lon="4.37625">
        <ele>664.8</ele>
        <time>2021-07-03T10:05:15Z</time>
      </trkpt>
      <trkpt lat="45.40104" lon="4.37623">
        <ele>663.8</ele>
        <time>2021-07-03T10:05:22Z</time>
      </trkpt>
      <trkpt lat="45.40102" lon="4.37622">
        <ele>663.8</ele>
        <time>2021-07-03T10:05:23Z</time>
      </trkpt>
      <trkpt lat="45.40099" lon="4.37621">
        <ele>663.6</ele>
        <time>2021-07-03T10:05:24Z</time>
      </trkpt>
      <trkpt lat="45.40089" lon="4.37613">
        <ele>663</ele>
        <time>2021-07-03T10:05:29Z</time>
      </trkpt>
      <trkpt lat="45.40087" lon="4.3761">
        <ele>662.8</ele>
        <time>2021-07-03T10:05:30Z</time>
      </trkpt>
      <trkpt lat="45.40086" lon="4.376">
        <ele>662</ele>
        <time>2021-07-03T10:05:33Z</time>
      </trkpt>
      <trkpt lat="45.40086" lon="4.37586">
        <ele>661.8</ele>
        <time>2021-07-03T10:05:37Z</time>
      </trkpt>
      <trkpt lat="45.40092" lon="4.37572">
        <ele>660.6</ele>
        <time>2021-07-03T10:05:42Z</time>
      </trkpt>
      <trkpt lat="45.40094" lon="4.3757">
        <ele>660.4</ele>
        <time>2021-07-03T10:05:43Z</time>
      </trkpt>
      <trkpt lat="45.40106" lon="4.37561">
        <ele>659.6</ele>
        <time>2021-07-03T10:05:49Z</time>
      </trkpt>
      <trkpt lat="45.40114" lon="4.37559">
        <ele>658.8</ele>
        <time>2021-07-03T10:05:53Z</time>
      </trkpt>
      <trkpt lat="45.40118" lon="4.37557">
        <ele>658.6</ele>
        <time>2021-07-03T10:05:55Z</time>
      </trkpt>
      <trkpt lat="45.40129" lon="4.37555">
        <ele>657.8</ele>
        <time>2021-07-03T10:06:00Z</time>
      </trkpt>
      <trkpt lat="45.40137" lon="4.37553">
        <ele>657.4</ele>
        <time>2021-07-03T10:06:03Z</time>
      </trkpt>
      <trkpt lat="45.40156" lon="4.3755">
        <ele>656.4</ele>
        <time>2021-07-03T10:06:11Z</time>
      </trkpt>
      <trkpt lat="45.4016" lon="4.37549">
        <ele>656.2</ele>
        <time>2021-07-03T10:06:13Z</time>
      </trkpt>
      <trkpt lat="45.40168" lon="4.37546">
        <ele>655.8</ele>
        <time>2021-07-03T10:06:17Z</time>
      </trkpt>
      <trkpt lat="45.40177" lon="4.37545">
        <ele>655</ele>
        <time>2021-07-03T10:06:20Z</time>
      </trkpt>
      <trkpt lat="45.40186" lon="4.37545">
        <ele>654.4</ele>
        <time>2021-07-03T10:06:23Z</time>
      </trkpt>
      <trkpt lat="45.40195" lon="4.37547">
        <ele>653.8</ele>
        <time>2021-07-03T10:06:26Z</time>
      </trkpt>
      <trkpt lat="45.40211" lon="4.37558">
        <ele>652.6</ele>
        <time>2021-07-03T10:06:32Z</time>
      </trkpt>
      <trkpt lat="45.40212" lon="4.37561">
        <ele>652.6</ele>
        <time>2021-07-03T10:06:33Z</time>
      </trkpt>
      <trkpt lat="45.40219" lon="4.37574">
        <ele>651.4</ele>
        <time>2021-07-03T10:06:38Z</time>
      </trkpt>
      <trkpt lat="45.40228" lon="4.37588">
        <ele>650.6</ele>
        <time>2021-07-03T10:06:43Z</time>
      </trkpt>
      <trkpt lat="45.4023" lon="4.3759">
        <ele>650.4</ele>
        <time>2021-07-03T10:06:44Z</time>
      </trkpt>
      <trkpt lat="45.40236" lon="4.37598">
        <ele>649.6</ele>
        <time>2021-07-03T10:06:47Z</time>
      </trkpt>
      <trkpt lat="45.40238" lon="4.37601">
        <ele>649.2</ele>
        <time>2021-07-03T10:06:48Z</time>
      </trkpt>
      <trkpt lat="45.40247" lon="4.37615">
        <ele>648.2</ele>
        <time>2021-07-03T10:06:53Z</time>
      </trkpt>
      <trkpt lat="45.40255" lon="4.37634">
        <ele>647.2</ele>
        <time>2021-07-03T10:07:00Z</time>
      </trkpt>
      <trkpt lat="45.40259" lon="4.37643">
        <ele>646.6</ele>
        <time>2021-07-03T10:07:03Z</time>
      </trkpt>
      <trkpt lat="45.40265" lon="4.37652">
        <ele>646.2</ele>
        <time>2021-07-03T10:07:06Z</time>
      </trkpt>
      <trkpt lat="45.40273" lon="4.37666">
        <ele>645</ele>
        <time>2021-07-03T10:07:11Z</time>
      </trkpt>
      <trkpt lat="45.40277" lon="4.37671">
        <ele>644.6</ele>
        <time>2021-07-03T10:07:13Z</time>
      </trkpt>
      <trkpt lat="45.40283" lon="4.37682">
        <ele>644</ele>
        <time>2021-07-03T10:07:17Z</time>
      </trkpt>
      <trkpt lat="45.40293" lon="4.37701">
        <ele>642.8</ele>
        <time>2021-07-03T10:07:23Z</time>
      </trkpt>
      <trkpt lat="45.40307" lon="4.37721">
        <ele>642</ele>
        <time>2021-07-03T10:07:30Z</time>
      </trkpt>
      <trkpt lat="45.40309" lon="4.37723">
        <ele>641.8</ele>
        <time>2021-07-03T10:07:31Z</time>
      </trkpt>
      <trkpt lat="45.40312" lon="4.37728">
        <ele>641.2</ele>
        <time>2021-07-03T10:07:33Z</time>
      </trkpt>
      <trkpt lat="45.40315" lon="4.37732">
        <ele>640.8</ele>
        <time>2021-07-03T10:07:35Z</time>
      </trkpt>
      <trkpt lat="45.40323" lon="4.37744">
        <ele>640</ele>
        <time>2021-07-03T10:07:40Z</time>
      </trkpt>
      <trkpt lat="45.40325" lon="4.37746">
        <ele>639.8</ele>
        <time>2021-07-03T10:07:41Z</time>
      </trkpt>
      <trkpt lat="45.40329" lon="4.3775">
        <ele>639.2</ele>
        <time>2021-07-03T10:07:43Z</time>
      </trkpt>
      <trkpt lat="45.40338" lon="4.37759">
        <ele>638.4</ele>
        <time>2021-07-03T10:07:47Z</time>
      </trkpt>
      <trkpt lat="45.40345" lon="4.37768">
        <ele>637.2</ele>
        <time>2021-07-03T10:07:51Z</time>
      </trkpt>
      <trkpt lat="45.40348" lon="4.37772">
        <ele>636.8</ele>
        <time>2021-07-03T10:07:53Z</time>
      </trkpt>
      <trkpt lat="45.4036" lon="4.37781">
        <ele>636.2</ele>
        <time>2021-07-03T10:07:58Z</time>
      </trkpt>
      <trkpt lat="45.40374" lon="4.37791">
        <ele>635.4</ele>
        <time>2021-07-03T10:08:03Z</time>
      </trkpt>
      <trkpt lat="45.40383" lon="4.37797">
        <ele>634.8</ele>
        <time>2021-07-03T10:08:06Z</time>
      </trkpt>
      <trkpt lat="45.404" lon="4.37805">
        <ele>633.8</ele>
        <time>2021-07-03T10:08:12Z</time>
      </trkpt>
      <trkpt lat="45.40402" lon="4.37806">
        <ele>633.6</ele>
        <time>2021-07-03T10:08:13Z</time>
      </trkpt>
      <trkpt lat="45.40414" lon="4.37817">
        <ele>632.8</ele>
        <time>2021-07-03T10:08:18Z</time>
      </trkpt>
      <trkpt lat="45.40423" lon="4.37826">
        <ele>632</ele>
        <time>2021-07-03T10:08:22Z</time>
      </trkpt>
      <trkpt lat="45.40425" lon="4.37828">
        <ele>632</ele>
        <time>2021-07-03T10:08:23Z</time>
      </trkpt>
      <trkpt lat="45.4043" lon="4.37836">
        <ele>631.6</ele>
        <time>2021-07-03T10:08:26Z</time>
      </trkpt>
      <trkpt lat="45.40438" lon="4.37847">
        <ele>630.6</ele>
        <time>2021-07-03T10:08:30Z</time>
      </trkpt>
      <trkpt lat="45.40443" lon="4.37854">
        <ele>629.8</ele>
        <time>2021-07-03T10:08:33Z</time>
      </trkpt>
      <trkpt lat="45.40448" lon="4.37859">
        <ele>629.6</ele>
        <time>2021-07-03T10:08:35Z</time>
      </trkpt>
      <trkpt lat="45.40457" lon="4.37871">
        <ele>628.4</ele>
        <time>2021-07-03T10:08:40Z</time>
      </trkpt>
      <trkpt lat="45.40462" lon="4.37878">
        <ele>627.6</ele>
        <time>2021-07-03T10:08:43Z</time>
      </trkpt>
      <trkpt lat="45.40466" lon="4.37883">
        <ele>627.2</ele>
        <time>2021-07-03T10:08:45Z</time>
      </trkpt>
      <trkpt lat="45.4048" lon="4.379">
        <ele>626</ele>
        <time>2021-07-03T10:08:52Z</time>
      </trkpt>
      <trkpt lat="45.40482" lon="4.37902">
        <ele>625.8</ele>
        <time>2021-07-03T10:08:53Z</time>
      </trkpt>
      <trkpt lat="45.40486" lon="4.3791">
        <ele>625</ele>
        <time>2021-07-03T10:08:56Z</time>
      </trkpt>
      <trkpt lat="45.40497" lon="4.37924">
        <ele>624</ele>
        <time>2021-07-03T10:09:02Z</time>
      </trkpt>
      <trkpt lat="45.40498" lon="4.37927">
        <ele>623.8</ele>
        <time>2021-07-03T10:09:03Z</time>
      </trkpt>
      <trkpt lat="45.40509" lon="4.3794">
        <ele>622.8</ele>
        <time>2021-07-03T10:09:09Z</time>
      </trkpt>
      <trkpt lat="45.40518" lon="4.37948">
        <ele>622</ele>
        <time>2021-07-03T10:09:13Z</time>
      </trkpt>
      <trkpt lat="45.40523" lon="4.37951">
        <ele>621.6</ele>
        <time>2021-07-03T10:09:15Z</time>
      </trkpt>
      <trkpt lat="45.40538" lon="4.37961">
        <ele>620.6</ele>
        <time>2021-07-03T10:09:21Z</time>
      </trkpt>
      <trkpt lat="45.40542" lon="4.37965">
        <ele>620</ele>
        <time>2021-07-03T10:09:23Z</time>
      </trkpt>
      <trkpt lat="45.40547" lon="4.3797">
        <ele>619.4</ele>
        <time>2021-07-03T10:09:26Z</time>
      </trkpt>
      <trkpt lat="45.40556" lon="4.37979">
        <ele>618.4</ele>
        <time>2021-07-03T10:09:30Z</time>
      </trkpt>
      <trkpt lat="45.40561" lon="4.37987">
        <ele>617.8</ele>
        <time>2021-07-03T10:09:33Z</time>
      </trkpt>
      <trkpt lat="45.40565" lon="4.37992">
        <ele>617.4</ele>
        <time>2021-07-03T10:09:35Z</time>
      </trkpt>
      <trkpt lat="45.40573" lon="4.38006">
        <ele>616.2</ele>
        <time>2021-07-03T10:09:40Z</time>
      </trkpt>
      <trkpt lat="45.40578" lon="4.38015">
        <ele>615.6</ele>
        <time>2021-07-03T10:09:43Z</time>
      </trkpt>
      <trkpt lat="45.40584" lon="4.38027">
        <ele>615</ele>
        <time>2021-07-03T10:09:47Z</time>
      </trkpt>
      <trkpt lat="45.40594" lon="4.38043">
        <ele>614</ele>
        <time>2021-07-03T10:09:53Z</time>
      </trkpt>
      <trkpt lat="45.40596" lon="4.38047">
        <ele>613.8</ele>
        <time>2021-07-03T10:09:54Z</time>
      </trkpt>
      <trkpt lat="45.40605" lon="4.38065">
        <ele>612.8</ele>
        <time>2021-07-03T10:10:00Z</time>
      </trkpt>
      <trkpt lat="45.4061" lon="4.38075">
        <ele>612.4</ele>
        <time>2021-07-03T10:10:03Z</time>
      </trkpt>
      <trkpt lat="45.40612" lon="4.38092">
        <ele>611.6</ele>
        <time>2021-07-03T10:10:08Z</time>
      </trkpt>
      <trkpt lat="45.40615" lon="4.38106">
        <ele>610.4</ele>
        <time>2021-07-03T10:10:12Z</time>
      </trkpt>
      <trkpt lat="45.40616" lon="4.38109">
        <ele>610.4</ele>
        <time>2021-07-03T10:10:13Z</time>
      </trkpt>
      <trkpt lat="45.40617" lon="4.38112">
        <ele>610.2</ele>
        <time>2021-07-03T10:10:14Z</time>
      </trkpt>
    </trkseg>
  </trk>
</gpx>